M I D A S
Marine Information and Data Acquisition System
Tripno 850 of the Zeeleeuw from 2005-02-23 07:26:07 to 2005-02-23 14:39:23
Back to CruiseResearch ActivitiesStationsMapUnderway DataData graphs

EquipmentUnitsComment
TimeDGPSUTC
LatitudeDGPSDM.mWGS84
LongitudeDGPSDM.mWGS84
TemperatureSBE03/SBE38deg celciusITS90
ConductivitySBE21S/mITS90
SalinitySBE21 Practical Salinity Units
ChlorophylAChelsea fluorimeterg/lCalibrated in Aceton
Missing or incorrect values are displayed as -999
Sea surface data collected by the RV Zeeleeuw from 2005-02-23 07:27:59 to 2005-02-23 14:45:50
                                                                                    Next 1000 lines
Time Latitude Longitude Temperature Conductivity Salinity ChlorophylA
2005-02-23 07:28:10 51°13.595 2°56.096 10.9562 0.061499 0.384872 -0.848668
2005-02-23 07:28:15 51°13.596 2°56.092 11.0876 0.061499 0.384879 -0.848668
2005-02-23 07:28:19 51°13.597 2°56.088 11.143 0.061499 0.384872 -0.814958
2005-02-23 07:28:25 51°13.599 2°56.081 11.2344 0.061395 0.384191 -0.848668
2005-02-23 07:28:30 51°13.602 2°56.075 11.2572 0.061499 0.384865 -0.848668
2005-02-23 07:28:35 51°13.604 2°56.067 11.3527 0.061395 0.384191 -0.848668
2005-02-23 07:28:40 51°13.606 2°56.06 11.3984 0.061395 0.384191 -0.848668
2005-02-23 07:28:45 51°13.608 2°56.052 11.3979 0.061395 0.384191 -0.848668
2005-02-23 07:28:49 51°13.61 2°56.046 11.399 0.061499 0.384857 -0.882377
2005-02-23 07:28:55 51°13.613 2°56.038 11.4803 0.061395 0.384184 -0.848668
2005-02-23 07:28:58 51°13.614 2°56.034 11.4683 0.061499 0.384865 -0.848668
2005-02-23 07:29:05 51°13.616 2°56.028 11.5018 0.061499 0.384865 -0.848668
2005-02-23 07:29:10 51°13.617 2°56.026 11.4763 0.061499 0.384865 -0.848668
2005-02-23 07:29:15 51°13.617 2°56.025 11.5249 0.061499 0.384865 -0.848668
2005-02-23 07:29:19 51°13.617 2°56.026 11.5222 0.061499 0.384857 -0.882377
2005-02-23 07:29:24 51°13.616 2°56.027 11.5247 0.061499 0.38485 -0.848668
2005-02-23 07:29:29 51°13.615 2°56.03 11.5144 0.061499 0.384828 -0.848668
2005-02-23 07:29:33 51°13.614 2°56.033 11.4153 0.061499 0.384813 -0.848668
2005-02-23 07:29:38 51°13.612 2°56.036 11.389 0.061499 0.384813 -0.848668
2005-02-23 07:29:45 51°13.609 2°56.041 11.2355 0.061395 0.384154 -0.848668
2005-02-23 07:29:49 51°13.607 2°56.045 11.1755 0.061499 0.38482 -0.882377
2005-02-23 07:29:54 51°13.604 2°56.049 11.209 0.061499 0.384842 -0.848668
2005-02-23 07:29:59 51°13.601 2°56.053 11.2212 0.061395 0.384184 -0.848668
2005-02-23 07:30:02 51°13.599 2°56.057 11.1669 0.061499 0.384872 -0.848668
2005-02-23 07:30:09 51°13.594 2°56.064 11.2093 0.061499 0.384872 -0.848668
2005-02-23 07:30:14 51°13.591 2°56.07 11.1996 0.061395 0.384199 -0.848668
2005-02-23 07:30:19 51°13.587 2°56.075 11.2325 0.061499 0.384879 -0.882377
2005-02-23 07:30:24 51°13.583 2°56.081 11.2934 0.061499 0.384872 -0.882377
2005-02-23 07:30:30 51°13.578 2°56.088 11.3269 0.061395 0.384191 -0.814958
2005-02-23 07:30:34 51°13.574 2°56.094 11.3575 0.061395 0.384191 -0.848668
2005-02-23 07:30:39 51°13.57 2°56.1 11.3551 0.061395 0.384191 -0.848668
2005-02-23 07:30:42 51°13.567 2°56.105 11.342 0.061499 0.384865 -0.848668
2005-02-23 07:30:49 51°13.561 2°56.114 11.3508 0.061499 0.384857 -0.882377
2005-02-23 07:30:54 51°13.557 2°56.12 11.3895 0.061499 0.384857 -0.848668
2005-02-23 07:30:59 51°13.553 2°56.126 11.4068 0.061499 0.384857 -0.882377
2005-02-23 07:31:05 51°13.549 2°56.133 11.442 0.061499 0.384857 -0.882377
2005-02-23 07:31:09 51°13.546 2°56.139 11.4699 0.061499 0.384857 -0.882377
2005-02-23 07:31:14 51°13.542 2°56.146 11.4764 0.061499 0.384857 -0.882377
2005-02-23 07:31:19 51°13.539 2°56.152 11.4725 0.061499 0.384857 -0.882377
2005-02-23 07:31:24 51°13.536 2°56.159 11.5025 0.061499 0.384857 -0.848668
2005-02-23 07:31:29 51°13.534 2°56.165 11.5393 0.061499 0.384857 -0.848668
2005-02-23 07:31:34 51°13.531 2°56.172 11.5427 0.061499 0.384857 -0.848668
2005-02-23 07:31:40 51°13.53 2°56.18 11.5494 0.061499 0.384857 -0.848668
2005-02-23 07:31:44 51°13.528 2°56.186 11.5523 0.061499 0.384865 -0.848668
2005-02-23 07:31:49 51°13.528 2°56.193 11.5511 0.061499 0.384872 -0.882377
2005-02-23 07:31:53 51°13.528 2°56.199 11.5457 0.061395 0.384206 -0.882377
2005-02-23 07:31:59 51°13.528 2°56.208 11.5563 0.061499 0.384879 -0.848668
2005-02-23 07:32:04 51°13.53 2°56.217 11.4727 0.061499 0.384894 -0.848668
2005-02-23 07:32:09 51°13.532 2°56.223 11.4517 0.061499 0.384894 -0.848668
2005-02-23 07:32:14 51°13.534 2°56.229 11.3834 0.061499 0.384902 -0.848668
2005-02-23 07:32:19 51°13.536 2°56.234 11.3836 0.061499 0.384872 -0.882377
2005-02-23 07:32:24 51°13.538 2°56.237 11.3218 0.061499 0.384857 -0.882377
2005-02-23 07:32:29 51°13.539 2°56.239 11.3028 0.061499 0.384842 -0.848668
2005-02-23 07:32:34 51°13.541 2°56.241 11.3553 0.061499 0.384835 -0.848668
2005-02-23 07:32:39 51°13.542 2°56.241 11.3945 0.061499 0.384835 -0.848668
2005-02-23 07:32:44 51°13.542 2°56.241 11.4071 0.061499 0.384842 -0.882377
2005-02-23 07:32:49 51°13.542 2°56.241 11.4499 0.061499 0.384835 -0.848668
2005-02-23 07:32:54 51°13.542 2°56.24 11.4492 0.061499 0.384835 -0.882377
2005-02-23 07:33:00 51°13.541 2°56.238 11.467 0.061499 0.384842 -0.848668
2005-02-23 07:33:03 51°13.541 2°56.237 11.4948 0.061499 0.384828 -0.848668
2005-02-23 07:33:09 51°13.539 2°56.235 11.5171 0.061499 0.384828 -0.848668
2005-02-23 07:33:14 51°13.538 2°56.234 11.489 0.061499 0.384828 -0.848668
2005-02-23 07:33:20 51°13.535 2°56.231 11.4904 0.061395 0.384154 -0.848668
2005-02-23 07:33:24 51°13.534 2°56.229 11.4996 0.061499 0.384828 -0.882377
2005-02-23 07:33:30 51°13.532 2°56.227 11.5411 0.061499 0.384828 -0.882377
2005-02-23 07:33:35 51°13.531 2°56.225 11.4638 0.061499 0.384828 -0.848668
2005-02-23 07:33:39 51°13.53 2°56.224 11.3603 0.061499 0.384828 -0.848668
2005-02-23 07:33:45 51°13.531 2°56.223 11.2883 0.061499 0.384828 -0.882377
2005-02-23 07:33:50 51°13.532 2°56.223 11.174 0.061499 0.384835 -0.848668
2005-02-23 07:33:53 51°13.534 2°56.222 11.1488 0.061499 0.38485 -0.848668
2005-02-23 07:33:58 51°13.536 2°56.222 11.1282 0.061499 0.38485 -0.848668
2005-02-23 07:34:05 51°13.54 2°56.221 11.1222 0.061499 0.384857 -0.882377
2005-02-23 07:34:09 51°13.542 2°56.221 11.2307 0.061499 0.384857 -0.882377
2005-02-23 07:34:14 51°13.544 2°56.22 11.3208 0.061499 0.384865 -0.848668
2005-02-23 07:34:19 51°13.545 2°56.219 11.3614 0.061499 0.384857 -0.882377
2005-02-23 07:34:25 51°13.545 2°56.219 11.2302 0.061499 0.38485 -0.882377
2005-02-23 07:34:29 51°13.544 2°56.218 11.3234 0.061499 0.384857 -0.848668
2005-02-23 07:34:33 51°13.543 2°56.219 11.2986 0.061499 0.38485 -0.848668
2005-02-23 07:34:39 51°13.542 2°56.219 11.342 0.061499 0.38485 -0.848668
2005-02-23 07:34:44 51°13.54 2°56.22 11.352 0.061395 0.384176 -0.848668
2005-02-23 07:34:50 51°13.537 2°56.222 11.3582 0.061499 0.38485 -0.848668
2005-02-23 07:34:55 51°13.534 2°56.224 11.3896 0.061499 0.384842 -0.882377
2005-02-23 07:35:00 51°13.531 2°56.227 11.3991 0.061499 0.384842 -0.848668
2005-02-23 07:35:05 51°13.529 2°56.229 11.4011 0.061395 0.384162 -0.848668
2005-02-23 07:35:09 51°13.527 2°56.23 11.4066 0.061395 0.384162 -0.848668
2005-02-23 07:35:15 51°13.526 2°56.23 11.408 0.061499 0.384828 -0.882377
2005-02-23 07:35:19 51°13.525 2°56.23 11.408 0.061499 0.384828 -0.882377
2005-02-23 07:35:25 51°13.526 2°56.229 11.4144 0.061499 0.384828 -0.882377
2005-02-23 07:35:29 51°13.526 2°56.228 11.4157 0.061395 0.384162 -0.848668
2005-02-23 07:35:34 51°13.527 2°56.226 11.4413 0.061499 0.384835 -0.882377
2005-02-23 07:35:38 51°13.528 2°56.223 11.4672 0.061499 0.384835 -0.882377
2005-02-23 07:35:44 51°13.53 2°56.218 11.4724 0.061395 0.384162 -0.882377
2005-02-23 07:35:49 51°13.533 2°56.212 11.4511 0.061499 0.38485 -0.882377
2005-02-23 07:35:54 51°13.536 2°56.204 11.4145 0.061395 0.384184 -0.848668
2005-02-23 07:35:58 51°13.538 2°56.197 11.3634 0.061499 0.38485 -0.848668
2005-02-23 07:36:04 51°13.542 2°56.185 11.365 0.061499 0.384835 -0.882377
2005-02-23 07:36:09 51°13.546 2°56.174 11.295 0.061499 0.384835 -0.882377
2005-02-23 07:36:14 51°13.549 2°56.163 11.2131 0.061499 0.384835 -0.848668
2005-02-23 07:36:19 51°13.553 2°56.152 11.1991 0.061395 0.384154 -0.848668
2005-02-23 07:36:23 51°13.556 2°56.143 11.2003 0.061499 0.38482 -0.882377
2005-02-23 07:36:30 51°13.562 2°56.127 11.197 0.061499 0.38482 -0.848668
2005-02-23 07:36:35 51°13.566 2°56.116 11.2168 0.061499 0.38482 -0.848668
2005-02-23 07:36:39 51°13.57 2°56.106 11.2454 0.061499 0.384828 -0.848668
2005-02-23 07:36:45 51°13.575 2°56.094 11.2692 0.061499 0.384835 -0.882377
2005-02-23 07:36:49 51°13.579 2°56.084 11.3606 0.061499 0.384842 -0.848668
2005-02-23 07:36:54 51°13.583 2°56.073 11.3738 0.061395 0.384184 -0.848668
2005-02-23 07:36:59 51°13.588 2°56.062 11.3752 0.061499 0.384857 -0.848668
2005-02-23 07:37:04 51°13.593 2°56.049 11.3736 0.061499 0.384857 -0.848668
2005-02-23 07:37:09 51°13.598 2°56.037 11.3305 0.061499 0.384857 -0.848668
2005-02-23 07:37:14 51°13.603 2°56.025 11.3222 0.061499 0.384857 -0.848668
2005-02-23 07:37:19 51°13.608 2°56.013 11.3304 0.061499 0.38485 -0.882377
2005-02-23 07:37:25 51°13.614 2°56 11.3423 0.061499 0.384842 -0.882377
2005-02-23 07:37:29 51°13.619 2°55.989 11.3435 0.061499 0.384842 -0.848668
2005-02-23 07:37:33 51°13.623 2°55.979 11.3516 0.061395 0.384169 -0.848668
2005-02-23 07:37:38 51°13.629 2°55.966 11.3566 0.061395 0.384169 -0.848668
2005-02-23 07:37:45 51°13.636 2°55.95 11.3539 0.061499 0.384842 -0.848668
2005-02-23 07:37:49 51°13.641 2°55.939 11.3266 0.061499 0.38485 -0.882377
2005-02-23 07:37:53 51°13.645 2°55.929 11.3633 0.061499 0.384857 -0.848668
2005-02-23 07:37:59 51°13.651 2°55.915 11.382 0.061499 0.384857 -0.848668
2005-02-23 07:38:04 51°13.656 2°55.905 11.3875 0.061395 0.384176 -0.848668
2005-02-23 07:38:09 51°13.661 2°55.895 11.3996 0.061395 0.384176 -0.848668
2005-02-23 07:38:14 51°13.666 2°55.883 11.4397 0.061499 0.384857 -0.882377
2005-02-23 07:38:19 51°13.67 2°55.874 11.4347 0.061395 0.384184 -0.882377
2005-02-23 07:38:23 51°13.674 2°55.864 11.4795 0.061499 0.38485 -0.882377
2005-02-23 07:38:29 51°13.68 2°55.852 11.4742 0.061499 0.38485 -0.848668
2005-02-23 07:38:34 51°13.684 2°55.842 11.4873 0.061499 0.38485 -0.848668
2005-02-23 07:38:39 51°13.688 2°55.833 11.4912 0.061499 0.38485 -0.848668
2005-02-23 07:38:44 51°13.694 2°55.822 11.4841 0.061499 0.38485 -0.848668
2005-02-23 07:38:49 51°13.698 2°55.812 11.4743 0.061395 0.384169 -0.882377
2005-02-23 07:38:53 51°13.703 2°55.802 11.4609 0.061499 0.384835 -0.848668
2005-02-23 07:38:59 51°13.708 2°55.789 11.4486 0.061499 0.384835 -0.848668
2005-02-23 07:39:05 51°13.715 2°55.774 11.4026 0.061395 0.384162 -0.848668
2005-02-23 07:39:09 51°13.721 2°55.763 11.3755 0.061395 0.384162 -0.848668
2005-02-23 07:39:14 51°13.726 2°55.751 11.3303 0.061499 0.38482 -0.848668
2005-02-23 07:39:19 51°13.733 2°55.739 11.3027 0.061499 0.384828 -0.882377
2005-02-23 07:39:24 51°13.741 2°55.725 11.2825 0.061499 0.384828 -0.882377
2005-02-23 07:39:29 51°13.749 2°55.712 11.2855 0.061395 0.384154 -0.848668
2005-02-23 07:39:34 51°13.757 2°55.7 11.2874 0.061395 0.384147 -0.882377
2005-02-23 07:39:39 51°13.765 2°55.689 11.2393 0.061395 0.384147 -0.882377
2005-02-23 07:39:44 51°13.774 2°55.678 11.2309 0.061499 0.384828 -0.848668
2005-02-23 07:39:49 51°13.785 2°55.667 11.2137 0.061499 0.38482 -0.882377
2005-02-23 07:39:54 51°13.796 2°55.657 11.2432 0.061499 0.384828 -0.882377
2005-02-23 07:39:59 51°13.805 2°55.649 11.2811 0.061499 0.384835 -0.848668
2005-02-23 07:40:04 51°13.818 2°55.639 11.3857 0.061395 0.384169 -0.882377
2005-02-23 07:40:09 51°13.827 2°55.63 11.3896 0.061395 0.384169 -0.882377
2005-02-23 07:40:15 51°13.841 2°55.62 11.3886 0.061499 0.384842 -0.882377
2005-02-23 07:40:19 51°13.852 2°55.611 11.388 0.061499 0.38485 -0.848668
2005-02-23 07:40:24 51°13.863 2°55.602 11.4055 0.061499 0.384835 -0.814958
2005-02-23 07:40:29 51°13.874 2°55.594 11.3939 0.061395 0.384169 -0.848668
2005-02-23 07:40:34 51°13.887 2°55.584 11.3797 0.061499 0.384835 -0.882377
2005-02-23 07:40:39 51°13.897 2°55.576 11.3825 0.061499 0.384835 -0.882377
2005-02-23 07:40:44 51°13.91 2°55.566 11.3828 0.061499 0.384828 -0.848668
2005-02-23 07:40:49 51°13.921 2°55.558 11.3849 0.061499 0.384828 -0.814958
2005-02-23 07:40:54 51°13.935 2°55.549 11.385 0.061395 0.384162 -0.848668
2005-02-23 07:40:59 51°13.945 2°55.541 11.4026 0.061395 0.384162 -0.848668
2005-02-23 07:41:02 51°13.954 2°55.536 11.3958 0.061499 0.384828 -0.848668
2005-02-23 07:41:09 51°13.971 2°55.524 11.3981 0.061499 0.384828 -0.848668
2005-02-23 07:41:13 51°13.981 2°55.518 11.4235 0.061499 0.384835 -0.848668
2005-02-23 07:41:19 51°13.995 2°55.509 11.4575 0.061499 0.384828 -0.848668
2005-02-23 07:41:24 51°14.008 2°55.5 11.4244 0.061499 0.384828 -0.814958
2005-02-23 07:41:29 51°14.019 2°55.493 11.4564 0.061499 0.384842 -0.882377
2005-02-23 07:41:34 51°14.033 2°55.485 11.4861 0.061499 0.384828 -0.882377
2005-02-23 07:41:38 51°14.043 2°55.478 11.4496 0.061499 0.384828 -0.882377
2005-02-23 07:41:44 51°14.058 2°55.469 11.4489 0.061499 0.384828 -0.848668
2005-02-23 07:41:49 51°14.07 2°55.46 11.4371 0.061395 0.384162 -0.848668
2005-02-23 07:41:54 51°14.081 2°55.453 11.4832 0.061499 0.384828 -0.848668
2005-02-23 07:41:59 51°14.093 2°55.444 11.4761 0.061395 0.384162 -0.848668
2005-02-23 07:42:04 51°14.106 2°55.435 11.4617 0.061499 0.384835 -0.882377
2005-02-23 07:42:09 51°14.119 2°55.425 11.4875 0.061499 0.384835 -0.882377
2005-02-23 07:42:13 51°14.128 2°55.418 11.4953 0.061395 0.384154 -0.848668
2005-02-23 07:42:18 51°14.14 2°55.408 11.4953 0.061499 0.384828 -0.882377
2005-02-23 07:42:24 51°14.154 2°55.396 11.4904 0.061499 0.384835 -0.848668
2005-02-23 07:42:29 51°14.166 2°55.386 11.5049 0.061395 0.384162 -0.848668
2005-02-23 07:42:33 51°14.175 2°55.377 11.5094 0.061499 0.384835 -0.882377
2005-02-23 07:42:40 51°14.19 2°55.36 11.5094 0.061499 0.384835 -0.882377
2005-02-23 07:42:45 51°14.2 2°55.349 11.5174 0.061499 0.384835 -0.882377
2005-02-23 07:42:50 51°14.21 2°55.336 11.5257 0.061395 0.384162 -0.848668
2005-02-23 07:42:54 51°14.22 2°55.324 11.5094 0.061499 0.384835 -0.882377
2005-02-23 07:42:58 51°14.227 2°55.313 11.5479 0.061499 0.384828 -0.848668
2005-02-23 07:43:04 51°14.239 2°55.295 11.5057 0.061499 0.384835 -0.882377
2005-02-23 07:43:09 51°14.249 2°55.28 11.4854 0.061499 0.384835 -0.882377
2005-02-23 07:43:14 51°14.257 2°55.265 11.5388 0.061395 0.384162 -0.848668
2005-02-23 07:43:19 51°14.267 2°55.249 11.5217 0.061499 0.384828 -0.848668
2005-02-23 07:43:24 51°14.277 2°55.23 11.4724 0.061499 0.384828 -0.848668
2005-02-23 07:43:29 51°14.286 2°55.212 11.4902 0.061499 0.384828 -0.848668
2005-02-23 07:43:34 51°14.295 2°55.194 11.5231 0.061499 0.384828 -0.848668
2005-02-23 07:43:39 51°14.304 2°55.178 11.4899 0.061499 0.384828 -0.848668
2005-02-23 07:43:44 51°14.313 2°55.158 11.4893 0.061499 0.384813 -0.848668
2005-02-23 07:43:49 51°14.322 2°55.14 11.4931 0.061499 0.38482 -0.848668
2005-02-23 07:43:53 51°14.328 2°55.125 11.3816 0.061499 0.384828 -0.882377
2005-02-23 07:43:59 51°14.338 2°55.102 11.3995 0.061395 0.384199 -0.848668
2005-02-23 07:44:05 51°14.348 2°55.079 11.5265 0.061499 0.384961 -0.848668
2005-02-23 07:44:09 51°14.356 2°55.061 11.4601 0.061499 0.384961 -0.848668
2005-02-23 07:44:14 51°14.365 2°55.04 11.5594 0.061499 0.38502 -0.848668
2005-02-23 07:44:19 51°14.373 2°55.021 11.5438 0.061499 0.38502 -0.814958
2005-02-23 07:44:24 51°14.382 2°54.997 11.5728 0.061499 0.384961 -0.848668
2005-02-23 07:44:29 51°14.391 2°54.974 11.4323 0.061499 0.384842 -0.814958
2005-02-23 07:44:33 51°14.397 2°54.956 11.481 0.061499 0.384768 -0.848668
2005-02-23 07:44:39 51°14.405 2°54.93 11.4431 0.061499 0.384768 -0.848668
2005-02-23 07:44:44 51°14.414 2°54.905 11.4483 0.061395 0.383984 -0.848668
2005-02-23 07:44:49 51°14.422 2°54.88 11.2444 0.061395 0.383984 -0.848668
2005-02-23 07:44:54 51°14.43 2°54.86 11.2333 0.061499 0.384664 -0.848668
2005-02-23 07:44:59 51°14.439 2°54.835 11.296 0.061395 0.384043 -0.848668
2005-02-23 07:45:05 51°14.449 2°54.807 11.3106 0.061395 0.384117 -0.848668
2005-02-23 07:45:09 51°14.456 2°54.782 11.299 0.061395 0.384117 -0.848668
2005-02-23 07:45:15 51°14.464 2°54.753 11.3314 0.061499 0.384879 -0.848668
2005-02-23 07:45:19 51°14.471 2°54.728 11.3172 0.061395 0.384221 -0.848668
2005-02-23 07:45:24 51°14.477 2°54.704 11.3301 0.061499 0.384909 -0.882377
2005-02-23 07:45:29 51°14.486 2°54.674 11.3416 0.061499 0.384902 -0.882377
2005-02-23 07:45:33 51°14.492 2°54.651 11.3517 0.061499 0.384842 -0.882377
2005-02-23 07:45:38 51°14.5 2°54.623 11.3654 0.061499 0.384842 -0.882377
2005-02-23 07:45:43 51°14.508 2°54.595 11.3723 0.061499 0.384805 -0.882377
2005-02-23 07:45:49 51°14.517 2°54.562 11.372 0.061499 0.384783 -0.848668
2005-02-23 07:45:54 51°14.525 2°54.536 11.3783 0.061499 0.384776 -0.848668
2005-02-23 07:45:59 51°14.532 2°54.508 11.3852 0.061499 0.384783 -0.848668
2005-02-23 07:46:04 51°14.54 2°54.476 11.3895 0.061499 0.384798 -0.882377
2005-02-23 07:46:08 51°14.546 2°54.453 11.3885 0.061499 0.384798 -0.882377
2005-02-23 07:46:14 51°14.554 2°54.418 11.3493 0.061499 0.384828 -0.848668
2005-02-23 07:46:19 51°14.561 2°54.388 11.3525 0.061499 0.384842 -0.882377
2005-02-23 07:46:24 51°14.569 2°54.361 11.3359 0.061499 0.384842 -0.848668
2005-02-23 07:46:29 51°14.578 2°54.333 11.3474 0.061395 0.384162 -0.848668
2005-02-23 07:46:35 51°14.589 2°54.305 11.3685 0.061499 0.38482 -0.848668
2005-02-23 07:46:39 51°14.598 2°54.284 11.3584 0.061499 0.38482 -0.848668
2005-02-23 07:46:44 51°14.61 2°54.256 11.374 0.061395 0.384147 -0.882377
2005-02-23 07:46:49 51°14.621 2°54.231 11.3924 0.061499 0.384813 -0.848668
2005-02-23 07:46:54 51°14.631 2°54.209 11.3917 0.061499 0.38482 -0.848668
2005-02-23 07:46:58 51°14.642 2°54.188 11.384 0.061499 0.384813 -0.882377
2005-02-23 07:47:04 51°14.656 2°54.159 11.4022 0.061499 0.384828 -0.848668
2005-02-23 07:47:09 51°14.669 2°54.136 11.401 0.061499 0.384828 -0.848668
2005-02-23 07:47:14 51°14.68 2°54.116 11.4048 0.061395 0.384147 -0.848668
2005-02-23 07:47:19 51°14.693 2°54.093 11.42 0.061499 0.38482 -0.848668
2005-02-23 07:47:24 51°14.707 2°54.069 11.4253 0.061499 0.384835 -0.848668
2005-02-23 07:47:29 51°14.72 2°54.048 11.4245 0.061395 0.384147 -0.882377
2005-02-23 07:47:34 51°14.733 2°54.026 11.4272 0.061499 0.38482 -0.848668
2005-02-23 07:47:39 51°14.745 2°54.006 11.4305 0.061499 0.38482 -0.848668
2005-02-23 07:47:43 51°14.755 2°53.989 11.4496 0.061499 0.384828 -0.848668
2005-02-23 07:47:49 51°14.772 2°53.961 11.4422 0.061499 0.384835 -0.848668
2005-02-23 07:47:54 51°14.784 2°53.939 11.4443 0.061499 0.384828 -0.848668
2005-02-23 07:47:59 51°14.797 2°53.917 11.4454 0.061395 0.384147 -0.882377
2005-02-23 07:48:04 51°14.809 2°53.896 11.4616 0.061395 0.384139 -0.848668
2005-02-23 07:48:09 51°14.822 2°53.874 11.4577 0.061395 0.384139 -0.848668
2005-02-23 07:48:13 51°14.831 2°53.857 11.4602 0.061499 0.384835 -0.848668
2005-02-23 07:48:19 51°14.845 2°53.832 11.4748 0.061499 0.38482 -0.882377
2005-02-23 07:48:24 51°14.858 2°53.808 11.4738 0.061395 0.384162 -0.848668
2005-02-23 07:48:30 51°14.871 2°53.783 11.4704 0.061395 0.384162 -0.848668
2005-02-23 07:48:34 51°14.883 2°53.763 11.4854 0.061499 0.38482 -0.848668
2005-02-23 07:48:39 51°14.894 2°53.743 11.4853 0.061499 0.38482 -0.848668
2005-02-23 07:48:44 51°14.906 2°53.721 11.4865 0.061395 0.384139 -0.882377
2005-02-23 07:48:49 51°14.92 2°53.697 11.4868 0.061499 0.38482 -0.882377
2005-02-23 07:48:54 51°14.933 2°53.675 11.4942 0.061499 0.38482 -0.848668
2005-02-23 07:48:58 51°14.943 2°53.659 11.4954 0.061395 0.384147 -0.848668
2005-02-23 07:49:04 51°14.959 2°53.635 11.4969 0.061499 0.38482 -0.882377
2005-02-23 07:49:10 51°14.975 2°53.615 11.5154 0.061499 0.38482 -0.882377
2005-02-23 07:49:13 51°14.985 2°53.602 11.5286 0.061499 0.384813 -0.848668
2005-02-23 07:49:19 51°15 2°53.583 11.5181 0.061395 0.384169 -0.814958
2005-02-23 07:49:23 51°15.014 2°53.567 11.526 0.061499 0.384813 -0.848668
2005-02-23 07:49:29 51°15.032 2°53.546 11.5265 0.061499 0.38482 -0.848668
2005-02-23 07:49:34 51°15.046 2°53.528 11.5335 0.061499 0.38482 -0.848668
2005-02-23 07:49:39 51°15.061 2°53.511 11.5398 0.061499 0.38482 -0.848668
2005-02-23 07:49:44 51°15.075 2°53.493 11.5399 0.061499 0.384813 -0.848668
2005-02-23 07:49:49 51°15.089 2°53.475 11.5496 0.061395 0.384147 -0.848668
2005-02-23 07:49:54 51°15.103 2°53.457 11.5516 0.061499 0.384835 -0.882377
2005-02-23 07:49:59 51°15.118 2°53.438 11.5521 0.061395 0.384139 -0.848668
2005-02-23 07:50:04 51°15.132 2°53.421 11.5563 0.061499 0.384835 -0.814958
2005-02-23 07:50:09 51°15.147 2°53.405 11.5582 0.061499 0.384835 -0.814958
2005-02-23 07:50:13 51°15.159 2°53.393 11.5634 0.061499 0.38479 -0.814958
2005-02-23 07:50:19 51°15.177 2°53.379 11.5655 0.061395 0.384125 -0.848668
2005-02-23 07:50:24 51°15.194 2°53.364 11.5692 0.061499 0.384805 -0.882377
2005-02-23 07:50:29 51°15.211 2°53.352 11.5775 0.061499 0.38482 -0.882377
2005-02-23 07:50:33 51°15.224 2°53.342 11.5809 0.061499 0.384813 -0.848668
2005-02-23 07:50:38 51°15.24 2°53.33 11.5811 0.061499 0.384813 -0.848668
2005-02-23 07:50:44 51°15.259 2°53.316 11.5882 0.061395 0.384176 -0.814958
2005-02-23 07:50:49 51°15.276 2°53.304 11.5872 0.061499 0.38482 -0.882377
2005-02-23 07:50:54 51°15.292 2°53.293 11.5937 0.061395 0.384162 -0.882377
2005-02-23 07:50:59 51°15.309 2°53.282 11.5951 0.061395 0.384154 -0.882377
2005-02-23 07:51:04 51°15.326 2°53.271 11.5972 0.061499 0.384813 -0.848668
2005-02-23 07:51:09 51°15.342 2°53.261 11.5993 0.061499 0.384813 -0.848668
2005-02-23 07:51:14 51°15.359 2°53.251 11.6023 0.061395 0.384139 -0.848668
2005-02-23 07:51:18 51°15.372 2°53.243 11.6059 0.061395 0.384147 -0.848668
2005-02-23 07:51:24 51°15.393 2°53.231 11.6105 0.061499 0.384805 -0.882377
2005-02-23 07:51:29 51°15.41 2°53.221 11.6142 0.061395 0.384162 -0.848668
2005-02-23 07:51:34 51°15.426 2°53.212 11.6178 0.061499 0.384842 -0.814958
2005-02-23 07:51:39 51°15.443 2°53.202 11.6206 0.061499 0.384842 -0.814958
2005-02-23 07:51:45 51°15.463 2°53.19 11.6206 0.061499 0.384828 -0.882377
2005-02-23 07:51:49 51°15.478 2°53.181 11.6234 0.061395 0.384154 -0.848668
2005-02-23 07:51:54 51°15.495 2°53.171 11.6274 0.061499 0.384828 -0.848668
2005-02-23 07:51:59 51°15.512 2°53.16 11.6313 0.061499 0.384828 -0.848668
2005-02-23 07:52:04 51°15.528 2°53.149 11.6329 0.061499 0.384813 -0.882377
2005-02-23 07:52:10 51°15.547 2°53.136 11.6376 0.061499 0.384813 -0.882377
2005-02-23 07:52:15 51°15.563 2°53.125 11.6404 0.061395 0.384162 -0.882377
2005-02-23 07:52:20 51°15.58 2°53.115 11.6436 0.061395 0.384147 -0.848668
2005-02-23 07:52:24 51°15.594 2°53.106 11.6457 0.061499 0.384835 -0.848668
2005-02-23 07:52:29 51°15.613 2°53.094 11.6485 0.061499 0.38482 -0.882377
2005-02-23 07:52:34 51°15.63 2°53.083 11.6528 0.061395 0.384162 -0.848668
2005-02-23 07:52:39 51°15.645 2°53.073 11.6543 0.061395 0.384162 -0.848668
2005-02-23 07:52:43 51°15.658 2°53.065 11.6567 0.061499 0.384828 -0.848668
2005-02-23 07:52:49 51°15.68 2°53.05 11.6591 0.061395 0.384169 -0.848668
2005-02-23 07:52:54 51°15.696 2°53.039 11.6626 0.061395 0.384169 -0.848668
2005-02-23 07:52:59 51°15.711 2°53.029 11.6664 0.061499 0.384835 -0.882377
2005-02-23 07:53:05 51°15.731 2°53.015 11.6705 0.061499 0.384835 -0.882377
2005-02-23 07:53:10 51°15.747 2°53.004 11.6745 0.061499 0.384835 -0.882377
2005-02-23 07:53:13 51°15.759 2°52.996 11.677 0.061395 0.384162 -0.848668
2005-02-23 07:53:19 51°15.779 2°52.983 11.679 0.061395 0.384176 -0.814958
2005-02-23 07:53:25 51°15.797 2°52.97 11.681 0.061499 0.384835 -0.848668
2005-02-23 07:53:30 51°15.814 2°52.959 11.6828 0.061499 0.384828 -0.848668
2005-02-23 07:53:35 51°15.831 2°52.949 11.686 0.061395 0.384162 -0.882377
2005-02-23 07:53:39 51°15.844 2°52.941 11.6864 0.061395 0.384162 -0.882377
2005-02-23 07:53:43 51°15.857 2°52.933 11.6896 0.061395 0.384154 -0.848668
2005-02-23 07:53:49 51°15.879 2°52.919 11.6917 0.061499 0.384828 -0.848668
2005-02-23 07:53:55 51°15.897 2°52.908 11.6943 0.061499 0.384828 -0.848668
2005-02-23 07:53:59 51°15.913 2°52.899 11.696 0.061395 0.384169 -0.882377
2005-02-23 07:54:04 51°15.929 2°52.889 11.6985 0.061395 0.384169 -0.882377
2005-02-23 07:54:09 51°15.946 2°52.88 11.7025 0.061395 0.384169 -0.882377
2005-02-23 07:54:14 51°15.961 2°52.872 11.7066 0.061395 0.384169 -0.848668
2005-02-23 07:54:19 51°15.979 2°52.862 11.708 0.061499 0.384835 -0.814958
2005-02-23 07:54:23 51°15.992 2°52.855 11.7099 0.061395 0.384169 -0.848668
2005-02-23 07:54:29 51°16.011 2°52.844 11.7162 0.061395 0.384162 -0.848668
2005-02-23 07:54:34 51°16.028 2°52.834 11.7191 0.061395 0.384184 -0.848668
2005-02-23 07:54:39 51°16.046 2°52.824 11.723 0.061395 0.384184 -0.848668
2005-02-23 07:54:45 51°16.066 2°52.813 11.7315 0.061499 0.384828 -0.882377
2005-02-23 07:54:49 51°16.08 2°52.805 11.7365 0.061499 0.384828 -0.848668
2005-02-23 07:54:54 51°16.096 2°52.796 11.732 0.061395 0.384191 -0.814958
2005-02-23 07:55:00 51°16.115 2°52.785 11.7347 0.061499 0.384842 -0.848668
2005-02-23 07:55:05 51°16.131 2°52.775 11.7356 0.061395 0.384176 -0.848668
2005-02-23 07:55:09 51°16.146 2°52.765 11.7378 0.061395 0.384176 -0.848668
2005-02-23 07:55:14 51°16.161 2°52.757 11.7446 0.061395 0.384176 -0.848668
2005-02-23 07:55:18 51°16.176 2°52.748 11.7449 0.061395 0.384162 -0.848668
2005-02-23 07:55:25 51°16.198 2°52.736 11.7462 0.061395 0.384176 -0.882377
2005-02-23 07:55:29 51°16.214 2°52.727 11.7489 0.061395 0.384176 -0.848668
2005-02-23 07:55:34 51°16.23 2°52.718 11.751 0.061395 0.384162 -0.848668
2005-02-23 07:55:39 51°16.245 2°52.71 11.7533 0.061395 0.384162 -0.848668
2005-02-23 07:55:44 51°16.264 2°52.7 11.7614 0.061395 0.384184 -0.848668
2005-02-23 07:55:49 51°16.281 2°52.69 11.7623 0.061395 0.384199 -0.848668
2005-02-23 07:55:53 51°16.294 2°52.682 11.7627 0.061395 0.384169 -0.848668
2005-02-23 07:56:00 51°16.316 2°52.67 11.7636 0.061499 0.384842 -0.848668
2005-02-23 07:56:04 51°16.331 2°52.662 11.7729 0.061395 0.384169 -0.882377
2005-02-23 07:56:10 51°16.35 2°52.65 11.7704 0.061395 0.384169 -0.882377
2005-02-23 07:56:14 51°16.364 2°52.641 11.7723 0.061499 0.38485 -0.882377
2005-02-23 07:56:19 51°16.38 2°52.632 11.7752 0.061395 0.384191 -0.882377
2005-02-23 07:56:24 51°16.396 2°52.624 11.7849 0.061395 0.384199 -0.848668
2005-02-23 07:56:29 51°16.415 2°52.613 11.782 0.061395 0.384191 -0.848668
2005-02-23 07:56:34 51°16.43 2°52.605 11.7851 0.061499 0.384828 -0.882377
2005-02-23 07:56:40 51°16.45 2°52.594 11.7844 0.061499 0.384828 -0.882377
2005-02-23 07:56:44 51°16.463 2°52.586 11.7877 0.061395 0.384191 -0.882377
2005-02-23 07:56:49 51°16.481 2°52.576 11.8006 0.061499 0.384865 -0.848668
2005-02-23 07:56:53 51°16.495 2°52.569 11.7982 0.061499 0.384835 -0.848668
2005-02-23 07:56:59 51°16.512 2°52.558 11.8055 0.061395 0.384191 -0.882377
2005-02-23 07:57:05 51°16.533 2°52.546 11.8144 0.061395 0.384191 -0.848668
2005-02-23 07:57:10 51°16.549 2°52.537 11.8082 0.061395 0.384191 -0.848668
2005-02-23 07:57:14 51°16.563 2°52.531 11.8076 0.061499 0.384828 -0.848668
2005-02-23 07:57:19 51°16.579 2°52.523 11.8206 0.061395 0.384199 -0.848668
2005-02-23 07:57:24 51°16.595 2°52.516 11.8272 0.061499 0.384828 -0.882377
2005-02-23 07:57:29 51°16.612 2°52.51 11.8199 0.061395 0.384176 -0.848668
2005-02-23 07:57:35 51°16.63 2°52.504 11.8257 0.061395 0.384176 -0.848668
2005-02-23 07:57:38 51°16.641 2°52.5 11.8281 0.061395 0.384176 -0.848668
2005-02-23 07:57:45 51°16.663 2°52.493 11.8345 0.061395 0.384184 -0.848668
2005-02-23 07:57:49 51°16.678 2°52.487 11.8339 0.061499 0.384835 -0.848668
2005-02-23 07:57:54 51°16.694 2°52.482 11.8318 0.061395 0.384169 -0.848668
2005-02-23 07:57:59 51°16.709 2°52.477 11.8321 0.061395 0.384169 -0.848668
2005-02-23 07:58:04 51°16.728 2°52.471 11.8405 0.061395 0.384176 -0.882377
2005-02-23 07:58:09 51°16.742 2°52.467 11.8433 0.061395 0.384176 -0.882377
2005-02-23 07:58:14 51°16.76 2°52.46 11.8434 0.061395 0.384191 -0.848668
2005-02-23 07:58:19 51°16.775 2°52.456 11.857 0.061499 0.38485 -0.848668
2005-02-23 07:58:25 51°16.795 2°52.449 11.845 0.061395 0.384169 -0.848668
2005-02-23 07:58:29 51°16.81 2°52.445 11.8533 0.061395 0.384184 -0.882377
2005-02-23 07:58:35 51°16.828 2°52.439 11.8638 0.061395 0.384191 -0.882377
2005-02-23 07:58:39 51°16.842 2°52.435 11.8651 0.061395 0.384191 -0.882377
2005-02-23 07:58:44 51°16.861 2°52.429 11.8656 0.061395 0.384191 -0.848668
2005-02-23 07:58:50 51°16.878 2°52.423 11.8606 0.061395 0.384169 -0.882377
2005-02-23 07:58:53 51°16.89 2°52.419 11.8604 0.061395 0.384221 -0.848668
2005-02-23 07:58:59 51°16.908 2°52.414 11.8651 0.061395 0.384162 -0.814958
2005-02-23 07:59:05 51°16.928 2°52.407 11.8698 0.061395 0.384184 -0.848668
2005-02-23 07:59:09 51°16.943 2°52.403 11.8765 0.061395 0.384184 -0.848668
2005-02-23 07:59:14 51°16.958 2°52.398 11.8818 0.061395 0.384191 -0.882377
2005-02-23 07:59:19 51°16.974 2°52.392 11.8747 0.061395 0.384176 -0.882377
2005-02-23 07:59:25 51°16.993 2°52.386 11.8742 0.061395 0.384191 -0.848668
2005-02-23 07:59:29 51°17.005 2°52.381 11.904 0.061395 0.384154 -0.848668
2005-02-23 07:59:34 51°17.024 2°52.375 11.8936 0.061395 0.384213 -0.848668
2005-02-23 07:59:39 51°17.039 2°52.369 11.8953 0.061395 0.384213 -0.848668
2005-02-23 07:59:45 51°17.058 2°52.363 11.9107 0.061395 0.384191 -0.848668
2005-02-23 07:59:49 51°17.073 2°52.358 11.9114 0.061395 0.384169 -0.848668
2005-02-23 07:59:54 51°17.089 2°52.352 11.9159 0.061395 0.384147 -0.848668
2005-02-23 07:59:59 51°17.104 2°52.346 11.9038 0.061395 0.384169 -0.848668
2005-02-23 08:00:05 51°17.123 2°52.339 11.9188 0.061395 0.384169 -0.848668
2005-02-23 08:00:09 51°17.139 2°52.334 11.9277 0.061395 0.384154 -0.848668
2005-02-23 08:00:14 51°17.156 2°52.328 11.9351 0.061395 0.384184 -0.882377
2005-02-23 08:00:19 51°17.171 2°52.323 11.9177 0.061395 0.384154 -0.848668
2005-02-23 08:00:24 51°17.188 2°52.317 11.9216 0.061395 0.384206 -0.882377
2005-02-23 08:00:29 51°17.205 2°52.311 11.9174 0.061499 0.384857 -0.882377
2005-02-23 08:00:35 51°17.223 2°52.305 11.9395 0.061499 0.384865 -0.814958
2005-02-23 08:00:39 51°17.236 2°52.3 11.9463 0.061499 0.384865 -0.814958
2005-02-23 08:00:45 51°17.257 2°52.292 11.9334 0.061395 0.384206 -0.882377
2005-02-23 08:00:49 51°17.27 2°52.287 11.9476 0.061395 0.384176 -0.882377
2005-02-23 08:00:54 51°17.288 2°52.279 11.9374 0.061395 0.384221 -0.848668
2005-02-23 08:00:59 51°17.303 2°52.274 11.9409 0.061395 0.384199 -0.848668
2005-02-23 08:01:04 51°17.321 2°52.268 11.9375 0.061395 0.384169 -0.882377
2005-02-23 08:01:09 51°17.338 2°52.262 11.9518 0.061395 0.384169 -0.882377
2005-02-23 08:01:14 51°17.355 2°52.255 11.9478 0.061395 0.384206 -0.848668
2005-02-23 08:01:19 51°17.369 2°52.25 11.9539 0.061395 0.384213 -0.848668
2005-02-23 08:01:24 51°17.388 2°52.243 11.9616 0.061499 0.384857 -0.848668
2005-02-23 08:01:29 51°17.405 2°52.237 11.96 0.061395 0.384184 -0.882377
2005-02-23 08:01:34 51°17.42 2°52.231 11.9722 0.061395 0.384221 -0.848668
2005-02-23 08:01:39 51°17.437 2°52.224 11.9597 0.061395 0.384221 -0.848668
2005-02-23 08:01:44 51°17.455 2°52.218 11.9715 0.061395 0.384184 -0.848668
2005-02-23 08:01:49 51°17.471 2°52.212 11.9675 0.061395 0.384206 -0.882377
2005-02-23 08:01:54 51°17.488 2°52.205 11.9694 0.061395 0.384213 -0.848668
2005-02-23 08:01:59 51°17.503 2°52.2 11.9703 0.061395 0.384199 -0.848668
2005-02-23 08:02:05 51°17.523 2°52.193 11.9848 0.061395 0.384199 -0.882377
2005-02-23 08:02:09 51°17.539 2°52.187 11.9836 0.061395 0.384199 -0.882377
2005-02-23 08:02:13 51°17.552 2°52.184 11.9842 0.061395 0.384213 -0.848668
2005-02-23 08:02:19 51°17.573 2°52.183 11.9908 0.061395 0.384191 -0.848668
2005-02-23 08:02:25 51°17.591 2°52.184 11.9854 0.061395 0.384199 -0.848668
2005-02-23 08:02:29 51°17.606 2°52.185 11.9836 0.061395 0.384191 -0.848668
2005-02-23 08:02:35 51°17.624 2°52.189 11.9813 0.061395 0.384191 -0.882377
2005-02-23 08:02:39 51°17.639 2°52.191 11.9893 0.061395 0.384191 -0.882377
2005-02-23 08:02:44 51°17.655 2°52.195 11.9849 0.061395 0.384228 -0.848668
2005-02-23 08:02:49 51°17.671 2°52.2 11.9992 0.061395 0.384228 -0.848668
2005-02-23 08:02:55 51°17.69 2°52.205 11.9954 0.061395 0.384228 -0.882377
2005-02-23 08:02:59 51°17.704 2°52.209 12.0017 0.061395 0.384228 -0.848668
2005-02-23 08:03:05 51°17.723 2°52.214 12.0099 0.061395 0.384221 -0.848668
2005-02-23 08:03:09 51°17.736 2°52.217 12.0047 0.061395 0.384221 -0.848668
2005-02-23 08:03:14 51°17.753 2°52.221 12.0052 0.061395 0.384221 -0.848668
2005-02-23 08:03:19 51°17.77 2°52.225 12.0121 0.061395 0.384228 -0.882377
2005-02-23 08:03:24 51°17.786 2°52.229 12.0299 0.061395 0.384221 -0.848668
2005-02-23 08:03:29 51°17.802 2°52.233 12.0363 0.061395 0.384228 -0.848668
2005-02-23 08:03:34 51°17.817 2°52.24 12.0803 0.061395 0.384199 -0.848668
2005-02-23 08:03:38 51°17.831 2°52.247 12.0806 0.061395 0.384199 -0.848668
2005-02-23 08:03:44 51°17.849 2°52.259 12.0757 0.061395 0.384191 -0.848668
2005-02-23 08:03:49 51°17.863 2°52.269 12.0594 0.061395 0.384184 -0.814958
2005-02-23 08:03:54 51°17.878 2°52.28 12.0737 0.061395 0.384243 -0.848668
2005-02-23 08:03:59 51°17.892 2°52.292 12.072 0.061395 0.384228 -0.848668
2005-02-23 08:04:05 51°17.908 2°52.305 12.0746 0.061395 0.384236 -0.848668
2005-02-23 08:04:09 51°17.921 2°52.315 12.0735 0.061395 0.384236 -0.848668
2005-02-23 08:04:14 51°17.935 2°52.326 12.0847 0.061395 0.384236 -0.848668
2005-02-23 08:04:19 51°17.948 2°52.336 12.0702 0.061395 0.384213 -0.848668
2005-02-23 08:04:24 51°17.964 2°52.348 12.0789 0.061395 0.384243 -0.848668
2005-02-23 08:04:29 51°17.978 2°52.359 12.0869 0.061395 0.384228 -0.848668
2005-02-23 08:04:34 51°17.993 2°52.371 12.0825 0.061395 0.384236 -0.882377
2005-02-23 08:04:39 51°18.006 2°52.381 12.0853 0.061395 0.384236 -0.882377
2005-02-23 08:04:44 51°18.021 2°52.394 12.083 0.061395 0.384228 -0.848668
2005-02-23 08:04:50 51°18.037 2°52.406 12.0889 0.061395 0.384243 -0.848668
2005-02-23 08:04:55 51°18.052 2°52.417 12.0899 0.061395 0.384236 -0.848668
2005-02-23 08:04:59 51°18.064 2°52.426 12.1143 0.061395 0.384236 -0.848668
2005-02-23 08:05:04 51°18.079 2°52.439 12.0987 0.061395 0.384221 -0.848668
2005-02-23 08:05:09 51°18.092 2°52.453 12.1063 0.061395 0.384221 -0.848668
2005-02-23 08:05:13 51°18.103 2°52.466 12.1103 0.061395 0.384228 -0.848668
2005-02-23 08:05:19 51°18.117 2°52.483 12.1082 0.061395 0.384221 -0.848668
2005-02-23 08:05:24 51°18.131 2°52.5 12.1121 0.061395 0.384236 -0.848668
2005-02-23 08:05:29 51°18.144 2°52.517 12.1284 0.061395 0.384221 -0.848668
2005-02-23 08:05:33 51°18.153 2°52.531 12.1208 0.061395 0.38425 -0.848668
2005-02-23 08:05:39 51°18.167 2°52.55 12.1361 0.061395 0.38425 -0.848668
2005-02-23 08:05:44 51°18.18 2°52.569 12.1354 0.061395 0.384228 -0.848668
2005-02-23 08:05:49 51°18.192 2°52.587 12.1415 0.061395 0.384236 -0.848668
2005-02-23 08:05:54 51°18.204 2°52.603 12.1259 0.061395 0.38425 -0.848668
2005-02-23 08:05:59 51°18.215 2°52.619 12.1454 0.061395 0.384265 -0.848668
2005-02-23 08:06:04 51°18.229 2°52.638 12.1293 0.061395 0.384273 -0.848668
2005-02-23 08:06:09 51°18.241 2°52.655 12.1373 0.061395 0.384273 -0.848668
2005-02-23 08:06:14 51°18.254 2°52.671 12.1358 0.061395 0.384258 -0.882377
2005-02-23 08:06:19 51°18.265 2°52.687 12.1556 0.061395 0.384265 -0.848668
2005-02-23 08:06:24 51°18.279 2°52.706 12.1514 0.061395 0.384265 -0.848668
2005-02-23 08:06:29 51°18.291 2°52.723 12.1518 0.061395 0.38425 -0.848668
2005-02-23 08:06:34 51°18.304 2°52.74 12.159 0.061395 0.384243 -0.848668
2005-02-23 08:06:39 51°18.315 2°52.755 12.1684 0.061395 0.384243 -0.848668
2005-02-23 08:06:44 51°18.329 2°52.773 12.1566 0.061395 0.384243 -0.848668
2005-02-23 08:06:49 51°18.341 2°52.79 12.1609 0.061395 0.384243 -0.848668
2005-02-23 08:06:55 51°18.355 2°52.809 12.1523 0.061395 0.384265 -0.848668
2005-02-23 08:06:59 51°18.366 2°52.824 12.1618 0.061395 0.38425 -0.848668
2005-02-23 08:07:05 51°18.379 2°52.842 12.1564 0.061395 0.384213 -0.882377
2005-02-23 08:07:10 51°18.392 2°52.859 12.1743 0.061395 0.384213 -0.882377
2005-02-23 08:07:14 51°18.402 2°52.873 12.1714 0.061395 0.384265 -0.882377
2005-02-23 08:07:19 51°18.415 2°52.89 12.1731 0.061395 0.384258 -0.848668
2005-02-23 08:07:24 51°18.429 2°52.909 12.1877 0.061395 0.384273 -0.882377
2005-02-23 08:07:29 51°18.441 2°52.926 12.2067 0.061395 0.384265 -0.814958
2005-02-23 08:07:35 51°18.454 2°52.945 12.1829 0.061395 0.38425 -0.848668
2005-02-23 08:07:39 51°18.463 2°52.961 12.1977 0.061395 0.38425 -0.848668
2005-02-23 08:07:44 51°18.475 2°52.983 12.1956 0.061395 0.384228 -0.882377
2005-02-23 08:07:49 51°18.485 2°53.004 12.1977 0.061395 0.384236 -0.882377
2005-02-23 08:07:54 51°18.495 2°53.025 12.1975 0.061395 0.384273 -0.848668
2005-02-23 08:07:59 51°18.504 2°53.044 12.1975 0.061395 0.384258 -0.848668
2005-02-23 08:08:04 51°18.514 2°53.069 12.1933 0.061395 0.384273 -0.882377
2005-02-23 08:08:09 51°18.523 2°53.09 12.1893 0.061395 0.384273 -0.882377
2005-02-23 08:08:14 51°18.533 2°53.112 12.2216 0.061395 0.384273 -0.848668
2005-02-23 08:08:19 51°18.541 2°53.133 12.2181 0.061395 0.384265 -0.882377
2005-02-23 08:08:25 51°18.553 2°53.159 12.2166 0.061395 0.384273 -0.882377
2005-02-23 08:08:29 51°18.562 2°53.178 12.2033 0.061395 0.384287 -0.882377
2005-02-23 08:08:34 51°18.571 2°53.2 12.2202 0.061395 0.384265 -0.814958
2005-02-23 08:08:38 51°18.579 2°53.218 12.2128 0.061395 0.384265 -0.814958
2005-02-23 08:08:45 51°18.591 2°53.245 12.2233 0.061395 0.384265 -0.848668
2005-02-23 08:08:49 51°18.6 2°53.265 12.2198 0.061395 0.384295 -0.882377
2005-02-23 08:08:54 51°18.609 2°53.288 12.2226 0.061395 0.384295 -0.848668
2005-02-23 08:08:59 51°18.616 2°53.311 12.2318 0.061395 0.384236 -0.848668
2005-02-23 08:09:05 51°18.624 2°53.341 12.2317 0.061395 0.384228 -0.848668
2005-02-23 08:09:09 51°18.629 2°53.362 12.2281 0.061395 0.384228 -0.848668
2005-02-23 08:09:14 51°18.635 2°53.387 12.2051 0.061395 0.384258 -0.848668
2005-02-23 08:09:19 51°18.641 2°53.412 12.2342 0.061395 0.384265 -0.848668
2005-02-23 08:09:23 51°18.645 2°53.433 12.2353 0.061395 0.384302 -0.848668
2005-02-23 08:09:29 51°18.651 2°53.465 12.2583 0.061395 0.384287 -0.882377
2005-02-23 08:09:34 51°18.656 2°53.49 12.2421 0.061395 0.38431 -0.848668
2005-02-23 08:09:39 51°18.661 2°53.515 12.2689 0.061395 0.38431 -0.848668
2005-02-23 08:09:44 51°18.667 2°53.54 12.2227 0.061395 0.384332 -0.848668
2005-02-23 08:09:49 51°18.672 2°53.566 12.2749 0.061395 0.384295 -0.848668
2005-02-23 08:09:54 51°18.676 2°53.589 12.2574 0.061395 0.384295 -0.848668
2005-02-23 08:09:59 51°18.682 2°53.616 12.2477 0.061395 0.384325 -0.848668
2005-02-23 08:10:03 51°18.686 2°53.637 12.2498 0.061395 0.384317 -0.882377
2005-02-23 08:10:09 51°18.693 2°53.669 12.2628 0.061395 0.384317 -0.882377
2005-02-23 08:10:14 51°18.698 2°53.692 12.2579 0.061395 0.384317 -0.882377
2005-02-23 08:10:18 51°18.702 2°53.713 12.2591 0.061395 0.384302 -0.848668
2005-02-23 08:10:24 51°18.708 2°53.744 12.2669 0.061395 0.38431 -0.882377
2005-02-23 08:10:29 51°18.713 2°53.765 12.263 0.061395 0.384302 -0.882377
2005-02-23 08:10:34 51°18.718 2°53.793 12.2658 0.061395 0.384295 -0.848668
2005-02-23 08:10:40 51°18.724 2°53.821 12.2729 0.061395 0.384295 -0.848668
2005-02-23 08:10:44 51°18.729 2°53.843 12.2832 0.061395 0.384295 -0.848668
2005-02-23 08:10:49 51°18.734 2°53.867 12.2715 0.061395 0.384295 -0.882377
2005-02-23 08:10:55 51°18.74 2°53.896 12.2787 0.061395 0.384295 -0.848668
2005-02-23 08:11:00 51°18.745 2°53.921 12.2745 0.061395 0.384302 -0.848668
2005-02-23 08:11:04 51°18.75 2°53.943 12.2779 0.061395 0.384295 -0.848668
2005-02-23 08:11:08 51°18.755 2°53.962 12.277 0.061395 0.384295 -0.848668
2005-02-23 08:11:15 51°18.762 2°53.997 12.2995 0.061395 0.38431 -0.848668
2005-02-23 08:11:18 51°18.767 2°54.014 12.2942 0.061395 0.384325 -0.848668
2005-02-23 08:11:24 51°18.772 2°54.044 12.2895 0.061395 0.384295 -0.848668
2005-02-23 08:11:29 51°18.777 2°54.067 12.3027 0.061395 0.384325 -0.882377
2005-02-23 08:11:35 51°18.783 2°54.096 12.291 0.061395 0.384317 -0.848668
2005-02-23 08:11:40 51°18.789 2°54.119 12.288 0.061395 0.384317 -0.848668
2005-02-23 08:11:44 51°18.794 2°54.141 12.2948 0.061395 0.384302 -0.848668
2005-02-23 08:11:49 51°18.799 2°54.168 12.3069 0.061395 0.384302 -0.882377
2005-02-23 08:11:55 51°18.805 2°54.195 12.3183 0.061395 0.384295 -0.848668
2005-02-23 08:11:59 51°18.81 2°54.218 12.3045 0.061395 0.384317 -0.848668
2005-02-23 08:12:04 51°18.816 2°54.243 12.3019 0.061395 0.384287 -0.848668
2005-02-23 08:12:10 51°18.822 2°54.27 12.3074 0.061395 0.384287 -0.848668
2005-02-23 08:12:14 51°18.826 2°54.291 12.3019 0.061395 0.38428 -0.882377
2005-02-23 08:12:20 51°18.832 2°54.317 12.315 0.061395 0.384287 -0.848668
2005-02-23 08:12:24 51°18.838 2°54.34 12.3142 0.061395 0.38431 -0.848668
2005-02-23 08:12:29 51°18.843 2°54.366 12.3257 0.061395 0.384295 -0.882377
2005-02-23 08:12:34 51°18.849 2°54.39 12.3045 0.061395 0.384317 -0.848668
2005-02-23 08:12:39 51°18.855 2°54.415 12.3206 0.061395 0.384317 -0.848668
2005-02-23 08:12:44 51°18.859 2°54.439 12.3315 0.061395 0.384325 -0.848668
2005-02-23 08:12:49 51°18.865 2°54.466 12.3288 0.061395 0.384317 -0.882377
2005-02-23 08:12:54 51°18.87 2°54.49 12.3174 0.061395 0.384317 -0.848668
2005-02-23 08:12:59 51°18.877 2°54.515 12.3257 0.061395 0.384332 -0.848668
2005-02-23 08:13:04 51°18.882 2°54.54 12.335 0.061395 0.384317 -0.848668
2005-02-23 08:13:09 51°18.888 2°54.562 12.3327 0.061395 0.384317 -0.848668
2005-02-23 08:13:14 51°18.893 2°54.589 12.3416 0.061395 0.384317 -0.848668
2005-02-23 08:13:18 51°18.898 2°54.608 12.3296 0.061395 0.384332 -0.814958
2005-02-23 08:13:24 51°18.905 2°54.638 12.3442 0.061395 0.384317 -0.848668
2005-02-23 08:13:29 51°18.91 2°54.663 12.3426 0.061395 0.384332 -0.848668
2005-02-23 08:13:34 51°18.916 2°54.685 12.3445 0.061395 0.384332 -0.848668
2005-02-23 08:13:39 51°18.922 2°54.712 12.3365 0.061395 0.384332 -0.848668
2005-02-23 08:13:44 51°18.928 2°54.736 12.349 0.061395 0.384325 -0.848668
2005-02-23 08:13:48 51°18.933 2°54.756 12.3596 0.061395 0.384332 -0.848668
2005-02-23 08:13:54 51°18.94 2°54.785 12.3423 0.061395 0.384325 -0.882377
2005-02-23 08:13:58 51°18.945 2°54.805 12.3455 0.061395 0.384339 -0.848668
2005-02-23 08:14:04 51°18.951 2°54.834 12.3459 0.061395 0.384317 -0.882377
2005-02-23 08:14:10 51°18.958 2°54.861 12.3429 0.061395 0.384317 -0.882377
2005-02-23 08:14:15 51°18.962 2°54.885 12.3634 0.061395 0.384347 -0.848668
2005-02-23 08:14:18 51°18.967 2°54.904 12.3537 0.061395 0.384362 -0.848668
2005-02-23 08:14:24 51°18.973 2°54.934 12.361 0.061395 0.384339 -0.848668
2005-02-23 08:14:29 51°18.978 2°54.957 12.3664 0.061395 0.384354 -0.848668
2005-02-23 08:14:34 51°18.984 2°54.984 12.3661 0.061395 0.384347 -0.848668
2005-02-23 08:14:39 51°18.99 2°55.009 12.3673 0.061395 0.384347 -0.848668
2005-02-23 08:14:44 51°18.996 2°55.034 12.3628 0.061395 0.384354 -0.848668
2005-02-23 08:14:49 51°19.001 2°55.058 12.37 0.061395 0.384332 -0.882377
2005-02-23 08:14:54 51°19.007 2°55.083 12.3673 0.061395 0.384369 -0.848668
2005-02-23 08:14:59 51°19.012 2°55.106 12.3673 0.061395 0.384354 -0.882377
2005-02-23 08:15:05 51°19.019 2°55.134 12.3659 0.061395 0.384332 -0.848668
2005-02-23 08:15:09 51°19.024 2°55.153 12.3855 0.061395 0.384332 -0.848668
2005-02-23 08:15:14 51°19.03 2°55.183 12.3627 0.061395 0.384362 -0.848668
2005-02-23 08:15:19 51°19.034 2°55.203 12.4044 0.061395 0.384325 -0.848668
2005-02-23 08:15:25 51°19.041 2°55.233 12.3609 0.061395 0.384362 -0.882377
2005-02-23 08:15:29 51°19.047 2°55.255 12.3914 0.061395 0.384362 -0.882377
2005-02-23 08:15:33 51°19.051 2°55.275 12.3904 0.061395 0.384376 -0.848668
2005-02-23 08:15:39 51°19.058 2°55.306 12.3973 0.061395 0.384376 -0.848668
2005-02-23 08:15:43 51°19.062 2°55.323 12.3969 0.061395 0.384376 -0.882377
2005-02-23 08:15:49 51°19.07 2°55.356 12.4053 0.061395 0.384391 -0.882377
2005-02-23 08:15:55 51°19.079 2°55.379 12.3807 0.061395 0.384391 -0.848668
2005-02-23 08:15:59 51°19.08 2°55.405 12.3997 0.061395 0.384362 -0.882377
2005-02-23 08:16:05 51°19.088 2°55.434 12.3967 0.061395 0.384347 -0.882377
2005-02-23 08:16:09 51°19.093 2°55.456 12.4094 0.061395 0.384347 -0.882377
2005-02-23 08:16:14 51°19.099 2°55.479 12.3121 0.061395 0.384347 -0.848668
2005-02-23 08:16:18 51°19.104 2°55.5 6.381 0.061395 0.38431 -0.848668
2005-02-23 08:16:24 51°19.112 2°55.53 5.787 0.061187 0.383755 0.39858
2005-02-23 08:16:29 51°19.117 2°55.555 5.265 0.160185 1.048296 -0.814958
2005-02-23 08:16:33 51°19.122 2°55.575 4.8838 0.179331 1.169978 2.488563
2005-02-23 08:16:39 51°19.129 2°55.603 4.8015 0.179331 1.169978 2.488563
2005-02-23 08:16:43 51°19.134 2°55.622 4.676 0.390042 2.613303 2.555982
2005-02-23 08:16:49 51°19.142 2°55.655 4.5936 0.647984 4.703591 2.555982
2005-02-23 08:16:55 51°19.149 2°55.682 4.5746 2.106405 18.490585 2.65711
2005-02-23 08:16:59 51°19.153 2°55.703 4.5073 2.777434 26.306918 2.960494
2005-02-23 08:17:05 51°19.16 2°55.732 4.5217 2.88573 28.50942 2.994204
2005-02-23 08:17:09 51°19.165 2°55.753 4.4846 2.88573 28.50942 2.994204
2005-02-23 08:17:14 51°19.171 2°55.778 4.4462 2.908152 29.216746 2.893076
2005-02-23 08:17:19 51°19.178 2°55.802 4.4875 2.897631 29.444774 2.791947
2005-02-23 08:17:25 51°19.185 2°55.833 4.463 2.885845 29.446606 2.825657
2005-02-23 08:17:29 51°19.191 2°55.855 4.4521 2.871429 29.438934 2.825657
2005-02-23 08:17:33 51°19.196 2°55.875 4.4279 2.861116 29.403438 2.825657
2005-02-23 08:17:40 51°19.205 2°55.907 4.4248 2.861116 29.403438 2.825657
2005-02-23 08:17:44 51°19.211 2°55.929 4.4088 2.860064 29.448917 2.893076
2005-02-23 08:17:49 51°19.217 2°55.954 4.4104 2.859749 29.492042 2.893076
2005-02-23 08:17:54 51°19.224 2°55.979 4.4199 2.848699 29.382729 2.893076
2005-02-23 08:17:59 51°19.23 2°56.001 4.426 2.851752 29.452504 2.926785
2005-02-23 08:18:04 51°19.237 2°56.028 4.411 2.852068 29.481091 2.926785
2005-02-23 08:18:09 51°19.243 2°56.053 4.4009 2.852068 29.481091 2.926785
2005-02-23 08:18:15 51°19.251 2°56.08 4.3979 2.849542 29.479663 2.994204
2005-02-23 08:18:19 51°19.256 2°56.1 4.3963 2.851752 29.518976 2.926785
2005-02-23 08:18:24 51°19.264 2°56.127 4.3965 2.847122 29.477874 2.960494
2005-02-23 08:18:29 51°19.271 2°56.152 4.3969 2.847227 29.48926 3.095332
2005-02-23 08:18:35 51°19.279 2°56.18 4.3904 2.843649 29.448404 2.994204
2005-02-23 08:18:39 51°19.284 2°56.2 4.3968 2.843649 29.448404 2.994204
2005-02-23 08:18:44 51°19.291 2°56.226 4.3885 2.84386 29.463336 2.994204
2005-02-23 08:18:50 51°19.299 2°56.253 4.3835 2.843544 29.469915 2.994204
2005-02-23 08:18:55 51°19.305 2°56.277 4.387 2.821761 29.232032 3.061623
2005-02-23 08:18:59 51°19.311 2°56.296 4.3846 2.842177 29.469177 3.027913
2005-02-23 08:19:03 51°19.316 2°56.315 4.4002 2.836073 29.40411 3.027913
2005-02-23 08:19:09 51°19.325 2°56.347 4.3768 2.836073 29.40411 3.027913
2005-02-23 08:19:14 51°19.332 2°56.371 4.3845 2.841124 29.466557 2.960494
2005-02-23 08:19:19 51°19.339 2°56.396 4.3831 2.842177 29.482515 2.960494
2005-02-23 08:19:25 51°19.347 2°56.423 4.3765 2.820394 29.24053 2.960494
2005-02-23 08:19:29 51°19.352 2°56.444 4.3837 2.842387 29.498273 2.926785
2005-02-23 08:19:34 51°19.359 2°56.469 4.3608 2.836599 29.432058 2.893076
2005-02-23 08:19:39 51°19.366 2°56.493 4.3689 2.836599 29.432058 2.893076
2005-02-23 08:19:45 51°19.373 2°56.519 4.3524 2.843861 29.522996 2.893076
2005-02-23 08:19:49 51°19.38 2°56.541 4.362 2.818921 29.241607 2.859366
2005-02-23 08:19:53 51°19.384 2°56.561 4.3634 2.714227 28.04475 2.859366
2005-02-23 08:19:59 51°19.392 2°56.589 4.3553 2.842177 29.508442 2.859366
2005-02-23 08:20:04 51°19.398 2°56.613 4.3611 2.833653 29.424222 2.825657
2005-02-23 08:20:09 51°19.405 2°56.637 4.3504 2.833653 29.424222 2.825657
2005-02-23 08:20:15 51°19.412 2°56.664 4.3487 2.84344 29.53943 2.758238
2005-02-23 08:20:19 51°19.418 2°56.683 4.3406 2.84102 29.521942 2.758238
2005-02-23 08:20:25 51°19.425 2°56.711 4.343 2.845124 29.569755 2.724529
2005-02-23 08:20:29 51°19.431 2°56.733 4.3408 2.841335 29.527922 2.791947
2005-02-23 08:20:35 51°19.439 2°56.759 4.3532 2.846808 29.592998 2.724529
2005-02-23 08:20:39 51°19.443 2°56.779 4.3568 2.846808 29.592998 2.724529
2005-02-23 08:20:44 51°19.451 2°56.805 4.3381 2.840178 29.528052 2.65711
2005-02-23 08:20:50 51°19.457 2°56.832 4.3359 2.840178 29.532781 2.6234
2005-02-23 08:20:54 51°19.463 2°56.853 4.3352 2.842914 29.568097 2.589691
2005-02-23 08:20:59 51°19.469 2°56.875 4.3433 2.848176 29.630815 2.522272
2005-02-23 08:21:04 51°19.476 2°56.901 4.3377 2.846597 29.61429 2.488563
2005-02-23 08:21:09 51°19.483 2°56.925 4.3354 2.846597 29.61429 2.488563
2005-02-23 08:21:13 51°19.487 2°56.944 4.3276 2.84544 29.597851 2.454853
2005-02-23 08:21:19 51°19.494 2°56.97 4.333 2.846492 29.614665 2.387435
2005-02-23 08:21:24 51°19.502 2°56.997 4.3288 2.843756 29.588021 2.353725
2005-02-23 08:21:29 51°19.508 2°57.021 4.3299 2.845861 29.617704 2.286306
2005-02-23 08:21:35 51°19.516 2°57.047 4.3454 2.839021 29.539226 2.286306
2005-02-23 08:21:40 51°19.523 2°57.071 4.332 2.839021 29.539226 2.286306
2005-02-23 08:21:45 51°19.529 2°57.095 4.3271 2.838915 29.541176 2.286306
2005-02-23 08:21:49 51°19.534 2°57.114 4.338 2.84302 29.592217 2.320016
2005-02-23 08:21:53 51°19.54 2°57.136 4.3285 2.842072 29.579768 2.218888
2005-02-23 08:21:59 51°19.548 2°57.165 4.3288 2.839863 29.559939 2.252597
2005-02-23 08:22:05 51°19.555 2°57.192 4.3375 2.840599 29.569973 2.286306
2005-02-23 08:22:09 51°19.562 2°57.212 4.3307 2.840599 29.569973 2.286306
2005-02-23 08:22:14 51°19.569 2°57.237 4.3323 2.839968 29.562727 2.286306
2005-02-23 08:22:19 51°19.574 2°57.258 4.328 2.837863 29.540153 2.286306
2005-02-23 08:22:25 51°19.582 2°57.287 4.3321 2.839231 29.555063 2.286306
2005-02-23 08:22:29 51°19.588 2°57.309 4.3305 2.840178 29.566723 2.286306
2005-02-23 08:22:35 51°19.595 2°57.336 4.338 2.841125 29.576012 2.320016
2005-02-23 08:22:39 51°19.601 2°57.355 4.326 2.841125 29.576012 2.320016
2005-02-23 08:22:45 51°19.609 2°57.384 4.3437 2.839126 29.556225 2.320016
2005-02-23 08:22:49 51°19.615 2°57.403 4.3351 2.840178 29.568304 2.353725
2005-02-23 08:22:55 51°19.622 2°57.433 4.3388 2.842283 29.594044 2.353725
2005-02-23 08:22:59 51°19.628 2°57.451 4.3432 2.835127 29.511911 2.387435
2005-02-23 08:23:04 51°19.635 2°57.478 4.3349 2.837653 29.540896 2.387435
2005-02-23 08:23:10 51°19.643 2°57.504 4.3377 2.837653 29.540896 2.387435
2005-02-23 08:23:15 51°19.65 2°57.529 4.3308 2.82071 29.348883 2.353725
2005-02-23 08:23:19 51°19.656 2°57.551 4.3265 2.836916 29.534021 2.421144
2005-02-23 08:23:25 51°19.663 2°57.578 4.3324 2.838705 29.553764 2.421144
2005-02-23 08:23:29 51°19.669 2°57.599 4.3218 2.833549 29.496163 2.353725
2005-02-23 08:23:33 51°19.674 2°57.619 4.3265 2.841862 29.590794 2.387435
2005-02-23 08:23:39 51°19.681 2°57.646 4.3254 2.841862 29.590794 2.387435
2005-02-23 08:23:45 51°19.689 2°57.675 4.3344 2.834917 29.512652 2.387435
2005-02-23 08:23:49 51°19.695 2°57.694 4.3227 2.841231 29.587501 2.320016
2005-02-23 08:23:55 51°19.704 2°57.724 4.3208 2.837969 29.551629 2.286306
2005-02-23 08:23:59 51°19.708 2°57.744 4.3247 2.839337 29.568125 2.286306
2005-02-23 08:24:04 51°19.717 2°57.77 4.325 2.833549 29.503262 2.218888
2005-02-23 08:24:09 51°19.723 2°57.794 4.3195 2.833549 29.503262 2.218888
2005-02-23 08:24:14 51°19.729 2°57.815 4.3208 2.842704 29.611542 2.185178
2005-02-23 08:24:19 51°19.735 2°57.841 4.3159 2.841126 29.592622 2.185178
2005-02-23 08:24:24 51°19.743 2°57.867 4.3249 2.839863 29.580494 2.185178
2005-02-23 08:24:29 51°19.75 2°57.892 4.3236 2.833444 29.509945 2.218888
2005-02-23 08:24:35 51°19.756 2°57.919 4.3261 2.83397 29.516776 2.185178
2005-02-23 08:24:39 51°19.762 2°57.938 4.3327 2.83397 29.516776 2.185178
2005-02-23 08:24:45 51°19.77 2°57.969 4.3359 2.839652 29.584407 2.151469
2005-02-23 08:24:49 51°19.776 2°57.99 4.3281 2.840705 29.594912 2.185178
2005-02-23 08:24:55 51°19.783 2°58.017 4.3324 2.842073 29.613795 2.185178
2005-02-23 08:24:59 51°19.789 2°58.037 4.3227 2.842704 29.617879 2.218888
2005-02-23 08:25:04 51°19.796 2°58.065 4.3238 2.843125 29.620337 2.185178
2005-02-23 08:25:10 51°19.803 2°58.092 4.3264 2.843125 29.620337 2.185178
2005-02-23 08:25:14 51°19.81 2°58.114 4.3271 2.8386 29.567574 2.320016
2005-02-23 08:25:19 51°19.817 2°58.137 4.3284 2.838284 29.563158 2.252597
2005-02-23 08:25:24 51°19.824 2°58.164 4.3178 2.839968 29.584076 2.252597
2005-02-23 08:25:29 51°19.83 2°58.187 4.3187 2.836495 29.544196 2.320016
2005-02-23 08:25:35 51°19.838 2°58.216 4.3198 2.824499 29.408843 2.353725
2005-02-23 08:25:39 51°19.843 2°58.237 4.3241 2.824499 29.408843 2.353725
2005-02-23 08:25:45 51°19.851 2°58.267 4.326 2.841547 29.605374 2.421144
2005-02-23 08:25:49 51°19.858 2°58.291 4.3201 2.835654 29.53848 2.421144
2005-02-23 08:25:53 51°19.863 2°58.31 4.3216 2.840073 29.589242 2.421144
2005-02-23 08:25:59 51°19.871 2°58.338 4.3192 2.842073 29.614587 2.522272
2005-02-23 08:26:05 51°19.88 2°58.368 4.3248 2.83639 29.552473 2.555982
2005-02-23 08:26:09 51°19.886 2°58.391 4.3266 2.83639 29.552473 2.555982
2005-02-23 08:26:15 51°19.893 2°58.418 4.3249 2.844283 29.64077 2.589691
2005-02-23 08:26:19 51°19.899 2°58.437 4.3257 2.837127 29.559353 2.65711
2005-02-23 08:26:25 51°19.908 2°58.468 4.3257 2.840705 29.601246 2.791947
2005-02-23 08:26:30 51°19.915 2°58.493 4.3211 2.841441 29.611294 2.994204
2005-02-23 08:26:35 51°19.922 2°58.518 4.3187 2.843441 29.634268 3.23017
2005-02-23 08:26:40 51°19.928 2°58.543 4.3213 2.843441 29.634268 3.23017
2005-02-23 08:26:44 51°19.935 2°58.565 4.3369 2.839547 29.590323 3.331298
2005-02-23 08:26:49 51°19.941 2°58.59 4.3378 2.841336 29.609293 3.466136
2005-02-23 08:26:55 51°19.95 2°58.618 4.3259 2.843546 29.633892 3.600973
2005-02-23 08:27:00 51°19.957 2°58.643 4.3314 2.835548 29.542013 3.668392
2005-02-23 08:27:05 51°19.964 2°58.668 4.324 2.839126 29.586279 3.668392
2005-02-23 08:27:09 51°19.97 2°58.689 4.3314 2.839126 29.586279 3.668392
2005-02-23 08:27:15 51°19.979 2°58.717 4.3283 2.841021 29.609627 3.702101
2005-02-23 08:27:19 51°19.983 2°58.737 4.3306 2.845335 29.656036 3.634683
2005-02-23 08:27:25 51°19.993 2°58.766 4.3283 2.842283 29.617797 3.567264
2005-02-23 08:27:29 51°19.999 2°58.789 4.3339 2.843757 29.635517 3.533554
2005-02-23 08:27:34 51°20.006 2°58.814 4.3248 2.842915 29.62743 3.432426
2005-02-23 08:27:39 51°20.013 2°58.836 4.3272 2.842915 29.62743 3.432426
2005-02-23 08:27:45 51°20.021 2°58.867 4.3273 2.845861 29.661289 3.297589
2005-02-23 08:27:49 51°20.028 2°58.889 4.3317 2.846388 29.666542 3.297589
2005-02-23 08:27:55 51°20.035 2°58.916 4.3292 2.843546 29.633892 3.263879
2005-02-23 08:27:59 51°20.042 2°58.935 4.3353 2.843651 29.634308 3.23017
2005-02-23 08:28:04 51°20.049 2°58.964 4.3308 2.83418 29.526301 3.095332
2005-02-23 08:28:09 51°20.056 2°58.989 4.3307 2.83418 29.526301 3.095332
2005-02-23 08:28:13 51°20.061 2°59.009 4.3305 2.84281 29.62622 3.061623
2005-02-23 08:28:19 51°20.07 2°59.039 4.3319 2.844283 29.643943 3.061623
2005-02-23 08:28:25 51°20.078 2°59.065 4.33 2.841757 29.614922 2.994204
2005-02-23 08:28:29 51°20.084 2°59.088 4.3274 2.839442 29.58753 2.893076
2005-02-23 08:28:34 51°20.091 2°59.112 4.3315 2.840284 29.59641 2.960494
2005-02-23 08:28:39 51°20.097 2°59.135 4.3252 2.840284 29.59641 2.960494
2005-02-23 08:28:43 51°20.103 2°59.155 4.323 2.838811 29.579485 2.893076
2005-02-23 08:28:49 51°20.112 2°59.188 4.3367 2.842915 29.626637 2.893076
2005-02-23 08:28:55 51°20.12 2°59.215 4.3309 2.84281 29.627013 2.893076
2005-02-23 08:28:59 51°20.126 2°59.237 4.3329 2.84523 29.65562 2.893076
2005-02-23 08:29:05 51°20.133 2°59.265 4.3246 2.842178 29.622136 2.859366
2005-02-23 08:29:09 51°20.139 2°59.286 4.3256 2.842178 29.622136 2.859366
2005-02-23 08:29:14 51°20.147 2°59.312 4.326 2.84323 29.632643 2.893076
2005-02-23 08:29:19 51°20.153 2°59.334 4.3244 2.846072 29.666883 2.758238
2005-02-23 08:29:24 51°20.16 2°59.361 4.324 2.842915 29.629015 2.791947
2005-02-23 08:29:29 51°20.167 2°59.386 4.3282 2.841652 29.613712 2.724529
2005-02-23 08:29:34 51°20.174 2°59.408 4.3276 2.839442 29.591489 2.65711
2005-02-23 08:29:39 51°20.181 2°59.432 4.3228 2.839442 29.591489 2.65711
2005-02-23 08:29:45 51°20.189 2°59.463 4.321 2.839968 29.598327 2.555982
2005-02-23 08:29:50 51°20.196 2°59.488 4.3277 2.836706 29.561637 2.555982
2005-02-23 08:29:54 51°20.201 2°59.508 4.3234 2.839337 29.593448 2.555982
2005-02-23 08:30:00 51°20.21 2°59.538 4.3224 2.841968 29.623681 2.488563
2005-02-23 08:30:04 51°20.216 2°59.558 4.3296 2.841336 29.617218 2.522272
2005-02-23 08:30:09 51°20.223 2°59.586 4.3208 2.841336 29.617218 2.522272
2005-02-23 08:30:15 51°20.231 2°59.613 4.3227 2.835127 29.545874 2.454853
2005-02-23 08:30:19 51°20.236 2°59.632 4.3224 2.8386 29.585775 2.421144
2005-02-23 08:30:24 51°20.244 2°59.66 4.3239 2.830497 29.492684 2.387435
2005-02-23 08:30:29 51°20.25 2°59.685 4.3248 2.827025 29.453588 2.421144
2005-02-23 08:30:33 51°20.256 2°59.706 4.3266 2.829024 29.47734 2.353725
2005-02-23 08:30:38 51°20.263 2°59.73 4.3303 2.829024 29.47734 2.353725
2005-02-23 08:30:44 51°20.271 2°59.761 4.322 2.837548 29.57685 2.387435
2005-02-23 08:30:49 51°20.278 2°59.785 4.3271 2.832497 29.519601 2.387435
2005-02-23 08:30:55 51°20.286 2°59.814 4.3274 2.830287 29.493424 2.353725
2005-02-23 08:30:59 51°20.292 2°59.833 4.3285 2.835864 29.558293 2.353725
2005-02-23 08:31:05 51°20.3 2°59.862 4.3256 2.83839 29.587316 2.387435
2005-02-23 08:31:09 51°20.306 2°59.885 4.3252 2.83839 29.587316 2.387435
2005-02-23 08:31:13 51°20.312 2°59.904 4.3258 2.837127 29.571221 2.421144
2005-02-23 08:31:19 51°20.319 2°59.932 4.3236 2.830603 29.496261 2.421144
2005-02-23 08:31:24 51°20.326 2°59.959 4.3262 2.830918 29.499098 2.353725
2005-02-23 08:31:29 51°20.333 2°59.984 4.329 2.837127 29.572013 2.387435
2005-02-23 08:31:35 51°20.341 3°0.012 4.3275 2.835969 29.558711 2.387435
2005-02-23 08:31:39 51°20.346 3°0.032 4.3318 2.835969 29.558711 2.387435
2005-02-23 08:31:45 51°20.354 3°0.06 4.327 2.833233 29.528065 2.454853
2005-02-23 08:31:50 51°20.362 3°0.086 4.327 2.830497 29.496631 2.454853
2005-02-23 08:31:54 51°20.368 3°0.105 4.332 2.832392 29.521553 2.387435
2005-02-23 08:31:59 51°20.375 3°0.13 4.3332 2.833654 29.535273 2.353725
2005-02-23 08:32:05 51°20.384 3°0.16 4.3281 2.832181 29.514394 2.353725
2005-02-23 08:32:10 51°20.39 3°0.185 4.3282 2.832181 29.514394 2.353725
2005-02-23 08:32:15 51°20.397 3°0.21 4.3333 2.821132 29.38592 2.286306
2005-02-23 08:32:19 51°20.403 3°0.231 4.3355 2.837127 29.569638 2.218888
2005-02-23 08:32:24 51°20.41 3°0.258 4.3326 2.83639 29.561174 2.218888
2005-02-23 08:32:30 51°20.417 3°0.285 4.3434 2.83176 29.507189 2.252597
2005-02-23 08:32:35 51°20.424 3°0.31 4.3424 2.836916 29.566429 2.252597
2005-02-23 08:32:39 51°20.43 3°0.33 4.3407 2.836916 29.566429 2.252597
2005-02-23 08:32:44 51°20.437 3°0.358 4.3389 2.838179 29.58173 2.185178
2005-02-23 08:32:49 51°20.445 3°0.383 4.3423 2.832707 29.516489 2.185178
2005-02-23 08:32:55 51°20.452 3°0.41 4.342 2.828603 29.468562 2.286306
2005-02-23 08:32:59 51°20.459 3°0.429 4.3433 2.838284 29.579773 2.353725
2005-02-23 08:33:04 51°20.466 3°0.457 4.3412 2.83618 29.553219 2.387435
2005-02-23 08:33:10 51°20.474 3°0.483 4.3452 2.83618 29.553219 2.387435
2005-02-23 08:33:15 51°20.48 3°0.508 4.3439 2.830708 29.488788 2.387435
2005-02-23 08:33:20 51°20.487 3°0.533 4.3462 2.842599 29.625388 2.421144
2005-02-23 08:33:24 51°20.493 3°0.556 4.3389 2.840705 29.602831 2.454853
2005-02-23 08:33:29 51°20.501 3°0.58 4.3467 2.84323 29.63185 2.353725
2005-02-23 08:33:35 51°20.507 3°0.608 4.3466 2.844072 29.640731 2.320016
2005-02-23 08:33:39 51°20.514 3°0.628 4.3431 2.844072 29.640731 2.320016
2005-02-23 08:33:45 51°20.522 3°0.658 4.35 2.841547 29.610919 2.320016
2005-02-23 08:33:49 51°20.528 3°0.677 4.3457 2.842389 29.620591 2.286306
2005-02-23 08:33:54 51°20.535 3°0.704 4.3429 2.842599 29.620632 2.286306
2005-02-23 08:33:59 51°20.541 3°0.726 4.345 2.844178 29.640354 2.218888
2005-02-23 08:34:05 51°20.55 3°0.756 4.355 2.848913 29.693979 2.218888
2005-02-23 08:34:10 51°20.556 3°0.781 4.3401 2.848913 29.693979 2.218888
2005-02-23 08:34:13 51°20.561 3°0.798 4.3455 2.849755 29.703655 2.218888
2005-02-23 08:34:18 51°20.568 3°0.823 4.3443 2.849229 29.698402 2.185178
2005-02-23 08:34:25 51°20.577 3°0.856 4.3434 2.841652 29.612128 2.252597
2005-02-23 08:34:29 51°20.582 3°0.878 4.3348 2.839968 29.593575 2.252597
2005-02-23 08:34:35 51°20.59 3°0.904 4.3374 2.848597 29.69194 2.185178
2005-02-23 08:34:39 51°20.595 3°0.925 4.3368 2.848597 29.69194 2.185178
2005-02-23 08:34:42 51°20.6 3°0.942 4.3386 2.848282 29.687517 2.151469
2005-02-23 08:34:49 51°20.61 3°0.973 4.336 2.847335 29.677427 2.151469
2005-02-23 08:34:55 51°20.618 3°1.003 4.3342 2.845756 29.660873 2.117759
2005-02-23 08:34:59 51°20.624 3°1.026 4.3345 2.840705 29.603623 2.151469
2005-02-23 08:35:05 51°20.632 3°1.053 4.335 2.842283 29.623345 2.08405
2005-02-23 08:35:09 51°20.638 3°1.075 4.3341 2.842283 29.623345 2.08405
2005-02-23 08:35:15 51°20.646 3°1.101 4.3321 2.839968 29.598327 2.08405
2005-02-23 08:35:19 51°20.651 3°1.121 4.3301 2.836916 29.564055 2.117759
2005-02-23 08:35:25 51°20.66 3°1.151 4.3329 2.840073 29.599536 2.151469
2005-02-23 08:35:29 51°20.666 3°1.174 4.3288 2.839232 29.590655 2.151469
2005-02-23 08:35:33 51°20.671 3°1.194 4.3305 2.833339 29.525322 2.08405
2005-02-23 08:35:39 51°20.679 3°1.221 4.3318 2.833339 29.525322 2.08405
2005-02-23 08:35:45 51°20.688 3°1.25 4.3318 2.838705 29.587777 2.117759
2005-02-23 08:35:49 51°20.694 3°1.273 4.3317 2.84081 29.613548 2.117759
2005-02-23 08:35:54 51°20.7 3°1.297 4.339 2.842073 29.628063 2.117759
2005-02-23 08:35:59 51°20.707 3°1.319 4.3389 2.833444 29.530483 2.117759
2005-02-23 08:36:04 51°20.714 3°1.346 4.3421 2.83639 29.564339 2.218888
2005-02-23 08:36:09 51°20.721 3°1.371 4.3372 2.83639 29.564339 2.218888
2005-02-23 08:36:14 51°20.727 3°1.392 4.3284 2.840915 29.616343 2.218888
2005-02-23 08:36:19 51°20.734 3°1.418 4.3294 2.837758 29.578477 2.185178
2005-02-23 08:36:25 51°20.742 3°1.448 4.3303 2.83397 29.534947 2.185178
2005-02-23 08:36:30 51°20.749 3°1.472 4.3331 2.843231 29.639781 2.218888
2005-02-23 08:36:35 51°20.757 3°1.497 4.329 2.840705 29.608376 2.320016
2005-02-23 08:36:39 51°20.761 3°1.517 4.3293 2.840705 29.608376 2.320016
2005-02-23 08:36:44 51°20.77 3°1.544 4.3296 2.839653 29.597868 2.320016
2005-02-23 08:36:49 51°20.776 3°1.569 4.3269 2.839126 29.596575 2.320016
2005-02-23 08:36:54 51°20.783 3°1.593 4.325 2.836601 29.567549 2.387435
2005-02-23 08:36:59 51°20.79 3°1.615 4.3275 2.831234 29.505884 2.353725
2005-02-23 08:37:04 51°20.797 3°1.643 4.3259 2.834496 29.542574 2.421144
2005-02-23 08:37:09 51°20.804 3°1.668 4.3252 2.834496 29.542574 2.421144
2005-02-23 08:37:15 51°20.811 3°1.696 4.321 2.836496 29.56634 2.421144
2005-02-23 08:37:19 51°20.818 3°1.717 4.3237 2.837548 29.579225 2.421144
2005-02-23 08:37:24 51°20.824 3°1.743 4.3261 2.832497 29.521972 2.454853
2005-02-23 08:37:29 51°20.831 3°1.767 4.3254 2.835549 29.558622 2.555982
2005-02-23 08:37:34 51°20.837 3°1.792 4.3263 2.825972 29.447808 2.522272
2005-02-23 08:37:39 51°20.844 3°1.814 4.3198 2.825972 29.447808 2.522272
2005-02-23 08:37:44 51°20.851 3°1.841 4.3242 2.830182 29.497742 2.6234
2005-02-23 08:37:49 51°20.859 3°1.866 4.3201 2.832707 29.527552 2.690819
2005-02-23 08:37:53 51°20.864 3°1.885 4.3233 2.829235 29.48765 2.690819
2005-02-23 08:37:59 51°20.873 3°1.915 4.3281 2.826183 29.452591 2.791947
2005-02-23 08:38:05 51°20.88 3°1.943 4.3233 2.831234 29.510623 2.859366
2005-02-23 08:38:09 51°20.885 3°1.965 4.3221 2.831234 29.510623 2.859366
2005-02-23 08:38:14 51°20.891 3°1.991 4.3222 2.825236 29.4425 2.893076
2005-02-23 08:38:19 51°20.897 3°2.014 4.3258 2.826078 29.454537 2.960494
2005-02-23 08:38:25 51°20.905 3°2.044 4.3211 2.832918 29.533925 2.926785
2005-02-23 08:38:30 51°20.911 3°2.07 4.3235 2.830918 29.510947 2.859366
2005-02-23 08:38:34 51°20.917 3°2.092 4.3206 2.832076 29.521878 2.926785
2005-02-23 08:38:39 51°20.922 3°2.115 4.3196 2.832076 29.521878 2.926785
2005-02-23 08:38:45 51°20.929 3°2.146 4.3229 2.831024 29.510575 2.926785
2005-02-23 08:38:49 51°20.935 3°2.168 4.3282 2.821658 29.402191 2.960494
2005-02-23 08:38:54 51°20.941 3°2.191 4.3257 2.828814 29.485183 2.994204
2005-02-23 08:38:59 51°20.948 3°2.22 4.3245 2.826814 29.463789 3.061623
2005-02-23 08:39:04 51°20.955 3°2.245 4.3261 2.810609 29.280025 3.129042
2005-02-23 08:39:10 51°20.961 3°2.272 4.3279 2.810609 29.280025 3.129042
2005-02-23 08:39:14 51°20.967 3°2.294 4.3294 2.808399 29.253872 3.162751
2005-02-23 08:39:19 51°20.972 3°2.318 4.3285 2.827972 29.478667 3.23017
2005-02-23 08:39:24 51°20.979 3°2.345 4.3258 2.827656 29.473461 3.263879
2005-02-23 08:39:29 51°20.985 3°2.37 4.3301 2.830497 29.506109 3.263879
2005-02-23 08:39:35 51°20.99 3°2.398 4.3282 2.827761 29.473092 3.365007
2005-02-23 08:39:39 51°20.997 3°2.417 4.3332 2.827761 29.473092 3.365007
2005-02-23 08:39:45 51°21.003 3°2.448 4.3285 2.823447 29.423527 3.331298
2005-02-23 08:39:49 51°21.009 3°2.47 4.3302 2.827025 29.464629 3.398717
2005-02-23 08:39:55 51°21.016 3°2.498 4.3314 2.8205 29.38811 3.432426
2005-02-23 08:39:59 51°21.021 3°2.518 4.3297 2.821974 29.404242 3.499845
2005-02-23 08:40:05 51°21.028 3°2.549 4.3331 2.828287 29.476769 3.398717
2005-02-23 08:40:09 51°21.034 3°2.571 4.3312 2.828287 29.476769 3.398717
2005-02-23 08:40:15 51°21.04 3°2.599 4.3286 2.833444 29.534436 3.365007
2005-02-23 08:40:20 51°21.047 3°2.624 4.3304 2.827235 29.463102 3.331298
2005-02-23 08:40:25 51°21.053 3°2.649 4.3318 2.825867 29.447388 3.263879
2005-02-23 08:40:29 51°21.058 3°2.672 4.3319 2.808399 29.248389 3.23017
2005-02-23 08:40:35 51°21.065 3°2.699 4.3287 2.831023 29.507415 3.162751
2005-02-23 08:40:40 51°21.072 3°2.724 4.3292 2.831023 29.507415 3.162751
2005-02-23 08:40:44 51°21.077 3°2.747 4.3296 2.827972 29.472353 3.129042
2005-02-23 08:40:49 51°21.083 3°2.773 4.3303 2.833549 29.536436 3.129042
2005-02-23 08:40:54 51°21.088 3°2.798 4.3358 2.808925 29.253645 3.23017
2005-02-23 08:40:59 51°21.093 3°2.821 4.3372 2.834496 29.546528 3.19646
2005-02-23 08:41:04 51°21.1 3°2.849 4.3342 2.81566 29.330169 3.263879
2005-02-23 08:41:09 51°21.105 3°2.875 4.3335 2.81566 29.330169 3.263879
2005-02-23 08:41:15 51°21.111 3°2.903 4.3319 2.835233 29.556576 3.331298
2005-02-23 08:41:19 51°21.114 3°2.924 4.3292 2.823447 29.420376 3.331298
2005-02-23 08:41:24 51°21.12 3°2.953 4.3292 2.832497 29.524343 3.432426
2005-02-23 08:41:29 51°21.125 3°2.977 4.3304 2.832812 29.52718 3.533554
2005-02-23 08:41:34 51°21.131 3°3.004 4.3259 2.832602 29.522391 3.567264
2005-02-23 08:41:39 51°21.136 3°3.03 4.3342 2.832602 29.522391 3.567264
2005-02-23 08:41:45 51°21.142 3°3.058 4.3268 2.832812 29.524809 3.499845
2005-02-23 08:41:49 51°21.147 3°3.081 4.3285 2.833549 29.534854 3.466136
2005-02-23 08:41:54 51°21.151 3°3.108 4.332 2.828182 29.473982 3.432426
2005-02-23 08:41:59 51°21.157 3°3.13 4.3379 2.835969 29.563459 3.432426
2005-02-23 08:42:04 51°21.162 3°3.159 4.3294 2.839863 29.609004 3.331298
2005-02-23 08:42:09 51°21.168 3°3.185 4.3295 2.839863 29.609004 3.331298
2005-02-23 08:42:13 51°21.172 3°3.205 4.3314 2.840284 29.615429 3.331298
2005-02-23 08:42:19 51°21.178 3°3.235 4.3278 2.838706 29.598075 3.297589
2005-02-23 08:42:25 51°21.184 3°3.265 4.3249 2.819238 29.372821 3.263879
2005-02-23 08:42:29 51°21.189 3°3.288 4.3299 2.842178 29.636412 3.297589
2005-02-23 08:42:34 51°21.194 3°3.312 4.329 2.838074 29.589233 3.263879
2005-02-23 08:42:40 51°21.2 3°3.342 4.3245 2.838074 29.589233 3.263879
2005-02-23 08:42:44 51°21.206 3°3.365 4.326 2.83418 29.543692 3.23017
2005-02-23 08:42:49 51°21.212 3°3.39 4.322 2.831234 29.512204 3.263879
2005-02-23 08:42:54 51°21.218 3°3.416 4.3279 2.831024 29.510575 3.162751
2005-02-23 08:42:59 51°21.223 3°3.439 4.3268 2.844914 29.670253 3.129042
2005-02-23 08:43:05 51°21.23 3°3.47 4.3264 2.840284 29.617014 3.129042
2005-02-23 08:43:09 51°21.235 3°3.493 4.3244 2.840284 29.617014 3.129042
2005-02-23 08:43:14 51°21.241 3°3.515 4.3271 2.845862 29.681939 3.061623
2005-02-23 08:43:19 51°21.246 3°3.541 4.3204 2.820395 29.390049 2.960494
2005-02-23 08:43:24 51°21.254 3°3.569 4.3215 2.842284 29.64159 2.926785
2005-02-23 08:43:29 51°21.26 3°3.594 4.3241 2.844283 29.665376 2.859366
2005-02-23 08:43:34 51°21.266 3°3.619 4.3261 2.822815 29.418637 2.859366
2005-02-23 08:43:39 51°21.272 3°3.646 4.321 2.822815 29.418637 2.859366
2005-02-23 08:43:44 51°21.279 3°3.67 4.3269 2.830076 29.502852 2.926785
2005-02-23 08:43:49 51°21.284 3°3.696 4.3233 2.83618 29.573004 2.859366
2005-02-23 08:43:55 51°21.29 3°3.724 4.3224 2.832076 29.527412 2.791947
2005-02-23 08:43:59 51°21.295 3°3.745 4.3219 2.847124 29.701234 2.690819
2005-02-23 08:44:05 51°21.303 3°3.776 4.325 2.84723 29.700058 2.758238
2005-02-23 08:44:09 51°21.308 3°3.798 4.3219 2.84723 29.700058 2.758238
2005-02-23 08:44:15 51°21.314 3°3.827 4.3193 2.847756 29.707701 2.690819
2005-02-23 08:44:19 51°21.319 3°3.847 4.3242 2.848072 29.711333 2.690819
2005-02-23 08:44:24 51°21.325 3°3.875 4.3193 2.844494 29.670974 2.6234
2005-02-23 08:44:29 51°21.332 3°3.898 4.3189 2.843757 29.662502 2.6234
2005-02-23 08:44:33 51°21.336 3°3.921 4.3166 2.843652 29.660497 2.65711
2005-02-23 08:44:39 51°21.344 3°3.952 4.3218 2.843652 29.660497 2.65711
2005-02-23 08:44:45 51°21.35 3°3.98 4.3173 2.841336 29.633874 2.522272
2005-02-23 08:44:49 51°21.355 3°4.003 4.319 2.848282 29.713754 2.589691
2005-02-23 08:44:53 51°21.36 3°4.023 4.3255 2.848282 29.715346 2.488563
2005-02-23 08:44:59 51°21.366 3°4.052 4.3199 2.842389 29.647563 2.488563
2005-02-23 08:45:05 51°21.374 3°4.082 4.3217 2.841652 29.64068 2.488563
2005-02-23 08:45:09 51°21.378 3°4.106 4.3164 2.841652 29.64068 2.488563
2005-02-23 08:45:14 51°21.385 3°4.131 4.3169 2.843652 29.663675 2.488563
2005-02-23 08:45:19 51°21.39 3°4.154 4.3231 2.841231 29.63822 2.488563
2005-02-23 08:45:25 51°21.397 3°4.185 4.3196 2.841863 29.644688 2.488563
2005-02-23 08:45:30 51°21.403 3°4.209 4.3141 2.823447 29.432195 2.454853
2005-02-23 08:45:35 51°21.41 3°4.235 4.3166 2.836917 29.586226 2.488563
2005-02-23 08:45:39 51°21.415 3°4.256 4.3152 2.836917 29.586226 2.488563
2005-02-23 08:45:44 51°21.421 3°4.284 4.3193 2.846704 29.700369 2.454853
2005-02-23 08:45:49 51°21.426 3°4.307 4.315 2.845546 29.687053 2.454853
2005-02-23 08:45:55 51°21.434 3°4.338 4.3171 2.84302 29.658796 2.454853
2005-02-23 08:45:59 51°21.439 3°4.358 4.3159 2.84281 29.657964 2.421144
2005-02-23 08:46:05 51°21.446 3°4.39 4.3153 2.83597 29.579298 2.387435
2005-02-23 08:46:10 51°21.452 3°4.415 4.3183 2.83597 29.579298 2.387435
2005-02-23 08:46:14 51°21.457 3°4.438 4.316 2.84081 29.635761 2.421144
2005-02-23 08:46:19 51°21.463 3°4.464 4.3131 2.845967 29.694281 2.421144
2005-02-23 08:46:24 51°21.469 3°4.489 4.3224 2.844599 29.679338 2.421144
2005-02-23 08:46:29 51°21.474 3°4.515 4.3144 2.844178 29.672906 2.387435
2005-02-23 08:46:35 51°21.482 3°4.543 4.3162 2.841231 29.640602 2.353725
2005-02-23 08:46:40 51°21.488 3°4.569 4.3124 2.841231 29.640602 2.353725
2005-02-23 08:46:44 51°21.493 3°4.592 4.3165 2.84744 29.712823 2.353725
2005-02-23 08:46:49 51°21.498 3°4.616 4.3165 2.82692 29.476837 2.387435
2005-02-23 08:46:54 51°21.505 3°4.643 4.3203 2.842178 29.651496 2.387435
2005-02-23 08:46:59 51°21.509 3°4.667 4.3162 2.792194 29.075708 2.387435
2005-02-23 08:47:04 51°21.517 3°4.695 4.316 2.826078 29.466372 2.353725
2005-02-23 08:47:09 51°21.522 3°4.719 4.3155 2.826078 29.466372 2.353725
2005-02-23 08:47:14 51°21.529 3°4.747 4.3165 2.835443 29.574832 2.320016
2005-02-23 08:47:19 51°21.534 3°4.77 4.3188 2.822605 29.42804 2.286306
2005-02-23 08:47:24 51°21.541 3°4.798 4.3146 2.842178 29.651496 2.218888
2005-02-23 08:47:29 51°21.547 3°4.824 4.3167 2.841863 29.64707 2.218888
2005-02-23 08:47:34 51°21.553 3°4.849 4.3153 2.839337 29.618816 2.185178
2005-02-23 08:47:39 51°21.558 3°4.872 4.3166 2.839337 29.618816 2.185178
2005-02-23 08:47:44 51°21.564 3°4.9 4.3157 2.840389 29.632507 2.151469
2005-02-23 08:47:49 51°21.571 3°4.926 4.3147 2.837232 29.59699 2.117759
2005-02-23 08:47:54 51°21.576 3°4.95 4.3103 2.834496 29.564734 2.185178
2005-02-23 08:47:59 51°21.582 3°4.974 4.3168 2.837653 29.601038 2.185178
2005-02-23 08:48:04 51°21.588 3°5.003 4.3128 2.84081 29.637348 2.185178
2005-02-23 08:48:09 51°21.594 3°5.029 4.315 2.84081 29.637348 2.185178
2005-02-23 08:48:15 51°21.6 3°5.057 4.3155 2.840389 29.633301 2.185178
2005-02-23 08:48:19 51°21.606 3°5.077 4.3164 2.836075 29.583678 2.117759
2005-02-23 08:48:25 51°21.612 3°5.109 4.3133 2.837969 29.606255 2.151469
2005-02-23 08:48:29 51°21.618 3°5.132 4.3141 2.831655 29.533647 2.185178
2005-02-23 08:48:34 51°21.623 3°5.158 4.3178 2.830287 29.517128 2.185178
2005-02-23 08:48:39 51°21.629 3°5.181 4.3146 2.830287 29.517128 2.185178
2005-02-23 08:48:45 51°21.636 3°5.212 4.312 2.836706 29.591732 2.218888
2005-02-23 08:48:49 51°21.64 3°5.233 4.3123 2.838706 29.613141 2.252597
2005-02-23 08:48:54 51°21.647 3°5.261 4.3163 2.838706 29.613934 2.185178
2005-02-23 08:48:59 51°21.653 3°5.284 4.3159 2.837864 29.604252 2.185178
2005-02-23 08:49:05 51°21.659 3°5.315 4.3115 2.83155 29.530855 2.218888
2005-02-23 08:49:09 51°21.665 3°5.338 4.3107 2.83155 29.530855 2.218888
2005-02-23 08:49:15 51°21.671 3°5.367 4.3123 2.833339 29.552215 2.185178
2005-02-23 08:49:19 51°21.676 3°5.387 4.3121 2.820501 29.407006 2.185178
2005-02-23 08:49:24 51°21.683 3°5.415 4.3112 2.82955 29.511031 2.185178
2005-02-23 08:49:29 51°21.688 3°5.441 4.3099 2.832497 29.543327 2.218888
2005-02-23 08:49:34 51°21.695 3°5.467 4.3105 2.809872 29.284115 2.185178
2005-02-23 08:49:39 51°21.699 3°5.491 4.312 2.809872 29.284115 2.185178
2005-02-23 08:49:44 51°21.706 3°5.519 4.3113 2.833655 29.558221 2.117759
2005-02-23 08:49:49 51°21.71 3°5.546 4.3089 2.825973 29.470689 2.151469
2005-02-23 08:49:54 51°21.715 3°5.572 4.31 2.833444 29.556593 2.185178
2005-02-23 08:49:59 51°21.719 3°5.597 4.3122 2.830392 29.522292 2.117759
2005-02-23 08:50:05 51°21.724 3°5.629 4.3093 2.837443 29.602583 2.117759
2005-02-23 08:50:09 51°21.728 3°5.653 4.3103 2.837443 29.602583 2.117759
2005-02-23 08:50:15 51°21.734 3°5.681 4.3101 2.83376 29.558639 2.117759
2005-02-23 08:50:19 51°21.738 3°5.706 4.3045 2.828919 29.503772 2.117759
2005-02-23 08:50:25 51°21.743 3°5.736 4.3079 2.812819 29.318744 2.08405
2005-02-23 08:50:29 51°21.748 3°5.759 4.3091 2.829024 29.505772 2.08405
2005-02-23 08:50:35 51°21.752 3°5.789 4.3042 2.831129 29.530762 2.016631
2005-02-23 08:50:39 51°21.756 3°5.81 4.3075 2.831129 29.530762 2.016631
2005-02-23 08:50:44 51°21.761 3°5.839 4.3055 2.835338 29.579961 2.08405
2005-02-23 08:50:49 51°21.765 3°5.866 4.3057 2.832287 29.546448 2.016631
2005-02-23 08:50:54 51°21.77 3°5.892 4.3036 2.830813 29.530297 1.982922
2005-02-23 08:50:59 51°21.774 3°5.916 4.3031 2.83376 29.564184 1.915503
2005-02-23 08:51:05 51°21.78 3°5.949 4.3013 2.828709 29.506886 1.949212
2005-02-23 08:51:09 51°21.783 3°5.973 4.3002 2.828709 29.506886 1.949212
2005-02-23 08:51:13 51°21.786 3°5.994 4.2956 2.826078 29.475847 1.848084
2005-02-23 08:51:20 51°21.79 3°6.029 4.2982 2.828498 29.503675 1.881794